<?xml version="1.0" encoding="UTF-8" standalone="no" ?><gpx xmlns="http://www.topografix.com/GPX/1/1" xmlns:gpxx="http://www.garmin.com/xmlschemas/GpxExtensions/v3" xmlns:wptx1="http://www.garmin.com/xmlschemas/WaypointExtension/v1" xmlns:gpxtpx="http://www.garmin.com/xmlschemas/TrackPointExtension/v1" creator="GuideVTT.com" version="1.1" xmlns:xsi="http://www.w3.org/2001/XMLSchema-instance" xsi:schemaLocation="http://www.topografix.com/GPX/1/1 http://www.topografix.com/GPX/1/1/gpx.xsd http://www.garmin.com/xmlschemas/GpxExtensions/v3 http://www8.garmin.com/xmlschemas/GpxExtensionsv3.xsd http://www.garmin.com/xmlschemas/WaypointExtension/v1 http://www8.garmin.com/xmlschemas/WaypointExtensionv1.xsd http://www.garmin.com/xmlschemas/TrackPointExtension/v1 http://www.garmin.com/xmlschemas/TrackPointExtensionv1.xsd">
<metadata><link href="http://www.garmin.com"><text>Garmin International</text></link><time>2013-06-22T15:13:50Z</time></metadata>
<trk><name>montherod1112g.gpx</name><extensions><gpxx:TrackExtension><gpxx:DisplayColor>Cyan</gpxx:DisplayColor></gpxx:TrackExtension></extensions><trkseg>
<trkpt lat="46.49860193734094" lon="6.3658130996684505"><ele></ele><time>2013-10-4T22:40:25Z</time></trkpt>
<trkpt lat="46.4984654786722" lon="6.365652957169336"><ele></ele><time>2013-10-4T22:40:28Z</time></trkpt>
<trkpt lat="46.49833055715854" lon="6.365655628927091"><ele></ele><time>2013-10-4T22:40:31Z</time></trkpt>
<trkpt lat="46.498145741381286" lon="6.365138189972608"><ele></ele><time>2013-10-4T22:40:34Z</time></trkpt>
<trkpt lat="46.497959692174284" lon="6.364490504702035"><ele></ele><time>2013-10-4T22:40:37Z</time></trkpt>
<trkpt lat="46.497866974060976" lon="6.364199226139373"><ele></ele><time>2013-10-4T22:40:40Z</time></trkpt>
<trkpt lat="46.49761777062992" lon="6.364008757410768"><ele></ele><time>2013-10-4T22:40:43Z</time></trkpt>
<trkpt lat="46.497231181275666" lon="6.363560470551596"><ele></ele><time>2013-10-4T22:40:46Z</time></trkpt>
<trkpt lat="46.49711412487828" lon="6.363074272096373"><ele></ele><time>2013-10-4T22:40:49Z</time></trkpt>
<trkpt lat="46.496908352020526" lon="6.362720109229358"><ele></ele><time>2013-10-4T22:40:52Z</time></trkpt>
<trkpt lat="46.496453371546515" lon="6.36217549285219"><ele></ele><time>2013-10-4T22:40:55Z</time></trkpt>
<trkpt lat="46.49620107919977" lon="6.361659424508478"><ele></ele><time>2013-10-4T22:40:58Z</time></trkpt>
<trkpt lat="46.49592691507802" lon="6.361208930556924"><ele></ele><time>2013-10-4T22:41:1Z</time></trkpt>
<trkpt lat="46.49592073866738" lon="6.36055770622885"><ele></ele><time>2013-10-4T22:41:4Z</time></trkpt>
<trkpt lat="46.496200085688336" lon="6.35918431217675"><ele></ele><time>2013-10-4T22:41:7Z</time></trkpt>
<trkpt lat="46.496353017463726" lon="6.358236804385601"><ele></ele><time>2013-10-4T22:41:10Z</time></trkpt>
<trkpt lat="46.49618677684189" lon="6.357784173505886"><ele></ele><time>2013-10-4T22:41:13Z</time></trkpt>
<trkpt lat="46.49615871368708" lon="6.357198517937351"><ele></ele><time>2013-10-4T22:41:16Z</time></trkpt>
<trkpt lat="46.49617190007548" lon="6.356221228835903"><ele></ele><time>2013-10-4T22:41:19Z</time></trkpt>
<trkpt lat="46.49627999137461" lon="6.355763123236138"><ele></ele><time>2013-10-4T22:41:22Z</time></trkpt>
<trkpt lat="46.496140414731386" lon="6.355277399767598"><ele></ele><time>2013-10-4T22:41:25Z</time></trkpt>
<trkpt lat="46.49559700386495" lon="6.354897457773257"><ele></ele><time>2013-10-4T22:41:28Z</time></trkpt>
<trkpt lat="46.49498582044085" lon="6.354486312446813"><ele></ele><time>2013-10-4T22:41:31Z</time></trkpt>
<trkpt lat="46.49405826529563" lon="6.353918677003542"><ele></ele><time>2013-10-4T22:41:34Z</time></trkpt>
<trkpt lat="46.49367287980842" lon="6.3536007308994655"><ele></ele><time>2013-10-4T22:41:37Z</time></trkpt>
<trkpt lat="46.49330438081132" lon="6.3526962661805335"><ele></ele><time>2013-10-4T22:41:40Z</time></trkpt>
<trkpt lat="46.49305204539414" lon="6.352180272001181"><ele></ele><time>2013-10-4T22:41:43Z</time></trkpt>
<trkpt lat="46.49300115499994" lon="6.351562544918948"><ele></ele><time>2013-10-4T22:41:46Z</time></trkpt>
<trkpt lat="46.49277908937137" lon="6.3518600893154975"><ele></ele><time>2013-10-4T22:41:49Z</time></trkpt>
<trkpt lat="46.49237588265567" lon="6.352031001900147"><ele></ele><time>2013-10-4T22:41:52Z</time></trkpt>
<trkpt lat="46.49212883845249" lon="6.352068520631525"><ele></ele><time>2013-10-4T22:41:55Z</time></trkpt>
<trkpt lat="46.49174967465855" lon="6.352401772090196"><ele></ele><time>2013-10-4T22:41:58Z</time></trkpt>
<trkpt lat="46.49123838866755" lon="6.353030747628509"><ele></ele><time>2013-10-4T22:42:1Z</time></trkpt>
<trkpt lat="46.49121839006166" lon="6.353291664838732"><ele></ele><time>2013-10-4T22:42:4Z</time></trkpt>
<trkpt lat="46.4914719637605" lon="6.353937880732328"><ele></ele><time>2013-10-4T22:42:7Z</time></trkpt>
<trkpt lat="46.491633722347046" lon="6.354390550396326"><ele></ele><time>2013-10-4T22:42:10Z</time></trkpt>
<trkpt lat="46.49108459062891" lon="6.355769245406248"><ele></ele><time>2013-10-4T22:42:13Z</time></trkpt>
<trkpt lat="46.49082389861415" lon="6.35626291934827"><ele></ele><time>2013-10-4T22:42:16Z</time></trkpt>
<trkpt lat="46.49047588711249" lon="6.357507306114142"><ele></ele><time>2013-10-4T22:42:19Z</time></trkpt>
<trkpt lat="46.49034421014945" lon="6.3583240335568245"><ele></ele><time>2013-10-4T22:42:22Z</time></trkpt>
<trkpt lat="46.49025983302037" lon="6.358911866976109"><ele></ele><time>2013-10-4T22:42:25Z</time></trkpt>
<trkpt lat="46.490196393546704" lon="6.359336461957315"><ele></ele><time>2013-10-4T22:42:28Z</time></trkpt>
<trkpt lat="46.48964349469282" lon="6.3603243809879295"><ele></ele><time>2013-10-4T22:42:31Z</time></trkpt>
<trkpt lat="46.48924583447213" lon="6.361081250290341"><ele></ele><time>2013-10-4T22:42:34Z</time></trkpt>
<trkpt lat="46.489063159980695" lon="6.360791813344898"><ele></ele><time>2013-10-4T22:42:37Z</time></trkpt>
<trkpt lat="46.48858691921145" lon="6.36037796667008"><ele></ele><time>2013-10-4T22:42:40Z</time></trkpt>
<trkpt lat="46.48835772376396" lon="6.359926647331566"><ele></ele><time>2013-10-4T22:42:43Z</time></trkpt>
<trkpt lat="46.48817071692743" lon="6.359181427332466"><ele></ele><time>2013-10-4T22:42:46Z</time></trkpt>
<trkpt lat="46.487985562164255" lon="6.358631551067125"><ele></ele><time>2013-10-4T22:42:49Z</time></trkpt>
<trkpt lat="46.48759585509958" lon="6.357857820305462"><ele></ele><time>2013-10-4T22:42:52Z</time></trkpt>
<trkpt lat="46.48682014605129" lon="6.356701060800243"><ele></ele><time>2013-10-4T22:42:55Z</time></trkpt>
<trkpt lat="46.486456634934456" lon="6.356317577313893"><ele></ele><time>2013-10-4T22:42:58Z</time></trkpt>
<trkpt lat="46.48589105076639" lon="6.355970697131374"><ele></ele><time>2013-10-4T22:43:1Z</time></trkpt>
<trkpt lat="46.48543758963164" lon="6.355589022569479"><ele></ele><time>2013-10-4T22:43:4Z</time></trkpt>
<trkpt lat="46.48511718566552" lon="6.355009329159885"><ele></ele><time>2013-10-4T22:43:7Z</time></trkpt>
<trkpt lat="46.48506693198953" lon="6.35445679918524"><ele></ele><time>2013-10-4T22:43:10Z</time></trkpt>
<trkpt lat="46.485016986441856" lon="6.353936824857702"><ele></ele><time>2013-10-4T22:43:13Z</time></trkpt>
<trkpt lat="46.48500548004469" lon="6.352732304141617"><ele></ele><time>2013-10-4T22:43:16Z</time></trkpt>
<trkpt lat="46.485066092965326" lon="6.352014750356378"><ele></ele><time>2013-10-4T22:43:19Z</time></trkpt>
<trkpt lat="46.484902455772385" lon="6.351366815424938"><ele></ele><time>2013-10-4T22:43:22Z</time></trkpt>
<trkpt lat="46.484552995347535" lon="6.350103963272418"><ele></ele><time>2013-10-4T22:43:25Z</time></trkpt>
<trkpt lat="46.484272230474375" lon="6.348969987533629"><ele></ele><time>2013-10-4T22:43:28Z</time></trkpt>
<trkpt lat="46.484059539949456" lon="6.347899773869089"><ele></ele><time>2013-10-4T22:43:31Z</time></trkpt>
<trkpt lat="46.4838215364813" lon="6.346537036848976"><ele></ele><time>2013-10-4T22:43:34Z</time></trkpt>
<trkpt lat="46.48387709887861" lon="6.345298629626588"><ele></ele><time>2013-10-4T22:43:37Z</time></trkpt>
<trkpt lat="46.48383987726347" lon="6.343769051705316"><ele></ele><time>2013-10-4T22:43:40Z</time></trkpt>
<trkpt lat="46.483955329375824" lon="6.3417479829628025"><ele></ele><time>2013-10-4T22:43:43Z</time></trkpt>
<trkpt lat="46.48419104883147" lon="6.34053847697016"><ele></ele><time>2013-10-4T22:43:46Z</time></trkpt>
<trkpt lat="46.484582273001585" lon="6.339130442100339"><ele></ele><time>2013-10-4T22:43:49Z</time></trkpt>
<trkpt lat="46.48460066332653" lon="6.338706780235011"><ele></ele><time>2013-10-4T22:43:52Z</time></trkpt>
<trkpt lat="46.48452721285378" lon="6.338089618825421"><ele></ele><time>2013-10-4T22:43:55Z</time></trkpt>
<trkpt lat="46.484312525702876" lon="6.336824118316817"><ele></ele><time>2013-10-4T22:43:58Z</time></trkpt>
<trkpt lat="46.48414501038528" lon="6.335785590432639"><ele></ele><time>2013-10-4T22:44:1Z</time></trkpt>
<trkpt lat="46.48402783511426" lon="6.335299569492767"><ele></ele><time>2013-10-4T22:44:4Z</time></trkpt>
<trkpt lat="46.48402796157438" lon="6.3353125910592105"><ele></ele><time>2013-10-4T22:44:7Z</time></trkpt>
<trkpt lat="46.48401157503534" lon="6.335256434030048"><ele></ele><time>2013-10-4T22:44:10Z</time></trkpt>
<trkpt lat="46.48409464485142" lon="6.334948485151366"><ele></ele><time>2013-10-4T22:44:13Z</time></trkpt>
<trkpt lat="46.48346269703984" lon="6.332197437826001"><ele></ele><time>2013-10-4T22:44:16Z</time></trkpt>
<trkpt lat="46.48326175660114" lon="6.328840391711542"><ele></ele><time>2013-10-4T22:44:19Z</time></trkpt>
<trkpt lat="46.48328073519021" lon="6.3267644440247714"><ele></ele><time>2013-10-4T22:44:22Z</time></trkpt>
<trkpt lat="46.48290180919302" lon="6.325631365228333"><ele></ele><time>2013-10-4T22:44:25Z</time></trkpt>
<trkpt lat="46.48278379343751" lon="6.325555421405388"><ele></ele><time>2013-10-4T22:44:28Z</time></trkpt>
<trkpt lat="46.482628810829816" lon="6.325637391656162"><ele></ele><time>2013-10-4T22:44:31Z</time></trkpt>
<trkpt lat="46.48159673508616" lon="6.32641134513799"><ele></ele><time>2013-10-4T22:44:34Z</time></trkpt>
<trkpt lat="46.48113379904516" lon="6.326650382785892"><ele></ele><time>2013-10-4T22:44:37Z</time></trkpt>
<trkpt lat="46.48096473831913" lon="6.326530348501657"><ele></ele><time>2013-10-4T22:44:40Z</time></trkpt>
<trkpt lat="46.4806268013204" lon="6.3253083388745255"><ele></ele><time>2013-10-4T22:44:43Z</time></trkpt>
<trkpt lat="46.48036579421319" lon="6.325014293201492"><ele></ele><time>2013-10-4T22:44:46Z</time></trkpt>
<trkpt lat="46.479606822849725" lon="6.324487298567366"><ele></ele><time>2013-10-4T22:44:49Z</time></trkpt>
<trkpt lat="46.47931882824786" lon="6.324065260238175"><ele></ele><time>2013-10-4T22:44:52Z</time></trkpt>
<trkpt lat="46.47901382707916" lon="6.323137289128571"><ele></ele><time>2013-10-4T22:44:55Z</time></trkpt>
<trkpt lat="46.47895483952628" lon="6.321914282412201"><ele></ele><time>2013-10-4T22:44:58Z</time></trkpt>
<trkpt lat="46.479089887786635" lon="6.320983307621358"><ele></ele><time>2013-10-4T22:45:1Z</time></trkpt>
<trkpt lat="46.479341858273315" lon="6.320354252992098"><ele></ele><time>2013-10-4T22:45:4Z</time></trkpt>
<trkpt lat="46.47986792032569" lon="6.319511300559851"><ele></ele><time>2013-10-4T22:45:7Z</time></trkpt>
<trkpt lat="46.47990991690468" lon="6.319319272263521"><ele></ele><time>2013-10-4T22:45:10Z</time></trkpt>
<trkpt lat="46.47923890557221" lon="6.3168162445189795"><ele></ele><time>2013-10-4T22:45:13Z</time></trkpt>
<trkpt lat="46.47916390293107" lon="6.315926250708348"><ele></ele><time>2013-10-4T22:45:16Z</time></trkpt>
<trkpt lat="46.47889162957142" lon="6.315641824523218"><ele></ele><time>2013-10-4T22:45:19Z</time></trkpt>
<trkpt lat="46.47885998995005" lon="6.31508628972689"><ele></ele><time>2013-10-4T22:45:22Z</time></trkpt>
<trkpt lat="46.4788849986127" lon="6.313306223794499"><ele></ele><time>2013-10-4T22:45:25Z</time></trkpt>
<trkpt lat="46.478553021238206" lon="6.311599236929505"><ele></ele><time>2013-10-4T22:45:28Z</time></trkpt>
<trkpt lat="46.478946100505425" lon="6.308562231048428"><ele></ele><time>2013-10-4T22:45:31Z</time></trkpt>
<trkpt lat="46.47878811824843" lon="6.3076102923220025"><ele></ele><time>2013-10-4T22:45:34Z</time></trkpt>
<trkpt lat="46.478817123822054" lon="6.3073652899440855"><ele></ele><time>2013-10-4T22:45:37Z</time></trkpt>
<trkpt lat="46.47833005431577" lon="6.307234265335757"><ele></ele><time>2013-10-4T22:45:40Z</time></trkpt>
<trkpt lat="46.47775809272437" lon="6.306148202988097"><ele></ele><time>2013-10-4T22:45:43Z</time></trkpt>
<trkpt lat="46.47751711822387" lon="6.305864216222172"><ele></ele><time>2013-10-4T22:45:46Z</time></trkpt>
<trkpt lat="46.47684413458166" lon="6.305952205115638"><ele></ele><time>2013-10-4T22:45:49Z</time></trkpt>
<trkpt lat="46.47575012390208" lon="6.306307144653027"><ele></ele><time>2013-10-4T22:45:52Z</time></trkpt>
<trkpt lat="46.47499315370395" lon="6.306396136724521"><ele></ele><time>2013-10-4T22:45:55Z</time></trkpt>
<trkpt lat="46.47451815356599" lon="6.3062991430402136"><ele></ele><time>2013-10-4T22:45:58Z</time></trkpt>
<trkpt lat="46.474184134332326" lon="6.306348082887141"><ele></ele><time>2013-10-4T22:46:1Z</time></trkpt>
<trkpt lat="46.473818093562414" lon="6.306554098761118"><ele></ele><time>2013-10-4T22:46:4Z</time></trkpt>
<trkpt lat="46.47363109383426" lon="6.30653808341794"><ele></ele><time>2013-10-4T22:46:7Z</time></trkpt>
<trkpt lat="46.473256105541765" lon="6.305522100013598"><ele></ele><time>2013-10-4T22:46:10Z</time></trkpt>
<trkpt lat="46.47286510416703" lon="6.304719100494258"><ele></ele><time>2013-10-4T22:46:13Z</time></trkpt>
<trkpt lat="46.47284316213499" lon="6.3036470532241"><ele></ele><time>2013-10-4T22:46:16Z</time></trkpt>
<trkpt lat="46.47263320603637" lon="6.303052014654778"><ele></ele><time>2013-10-4T22:46:19Z</time></trkpt>
<trkpt lat="46.472151178861445" lon="6.3021610021840875"><ele></ele><time>2013-10-4T22:46:22Z</time></trkpt>
<trkpt lat="46.47195320884061" lon="6.301568059469272"><ele></ele><time>2013-10-4T22:46:25Z</time></trkpt>
<trkpt lat="46.47180619167571" lon="6.30149806586458"><ele></ele><time>2013-10-4T22:46:28Z</time></trkpt>
<trkpt lat="46.471526235344605" lon="6.301565028511522"><ele></ele><time>2013-10-4T22:46:31Z</time></trkpt>
<trkpt lat="46.47112121626645" lon="6.30191697222924"><ele></ele><time>2013-10-4T22:46:34Z</time></trkpt>
<trkpt lat="46.470900184822575" lon="6.301973040248854"><ele></ele><time>2013-10-4T22:46:37Z</time></trkpt>
<trkpt lat="46.47059919807808" lon="6.301570028409378"><ele></ele><time>2013-10-4T22:46:40Z</time></trkpt>
<trkpt lat="46.47053818517661" lon="6.301150008859915"><ele></ele><time>2013-10-4T22:46:43Z</time></trkpt>
<trkpt lat="46.4705791824719" lon="6.300580962130611"><ele></ele><time>2013-10-4T22:46:46Z</time></trkpt>
<trkpt lat="46.47029321077915" lon="6.2995159473352835"><ele></ele><time>2013-10-4T22:46:49Z</time></trkpt>
<trkpt lat="46.47040427623926" lon="6.2992039760690455"><ele></ele><time>2013-10-4T22:46:52Z</time></trkpt>
<trkpt lat="46.47108128888554" lon="6.298782973992854"><ele></ele><time>2013-10-4T22:46:55Z</time></trkpt>
<trkpt lat="46.471767276449505" lon="6.297999035406199"><ele></ele><time>2013-10-4T22:46:58Z</time></trkpt>
<trkpt lat="46.47182427890677" lon="6.297675998313682"><ele></ele><time>2013-10-4T22:47:1Z</time></trkpt>
<trkpt lat="46.47207725398635" lon="6.297122045731253"><ele></ele><time>2013-10-4T22:47:4Z</time></trkpt>
<trkpt lat="46.472428291306834" lon="6.296908066598538"><ele></ele><time>2013-10-4T22:47:7Z</time></trkpt>
<trkpt lat="46.47287127430578" lon="6.296906068922676"><ele></ele><time>2013-10-4T22:47:10Z</time></trkpt>
<trkpt lat="46.473253324473944" lon="6.296701059413952"><ele></ele><time>2013-10-4T22:47:13Z</time></trkpt>
<trkpt lat="46.47309524879323" lon="6.296309032401404"><ele></ele><time>2013-10-4T22:47:16Z</time></trkpt>
<trkpt lat="46.47213327457413" lon="6.295416998957226"><ele></ele><time>2013-10-4T22:47:19Z</time></trkpt>
<trkpt lat="46.472053317120725" lon="6.295083061058816"><ele></ele><time>2013-10-4T22:47:22Z</time></trkpt>
<trkpt lat="46.472235296619864" lon="6.294585013597029"><ele></ele><time>2013-10-4T22:47:25Z</time></trkpt>
<trkpt lat="46.47228836141576" lon="6.294157034849167"><ele></ele><time>2013-10-4T22:47:28Z</time></trkpt>
<trkpt lat="46.472024338325895" lon="6.293783025599153"><ele></ele><time>2013-10-4T22:47:31Z</time></trkpt>
<trkpt lat="46.47152737968542" lon="6.293570025517246"><ele></ele><time>2013-10-4T22:47:34Z</time></trkpt>
<trkpt lat="46.47153433833793" lon="6.2934730470158655"><ele></ele><time>2013-10-4T22:47:37Z</time></trkpt>
<trkpt lat="46.47197733394559" lon="6.2927440023131105"><ele></ele><time>2013-10-4T22:47:40Z</time></trkpt>
<trkpt lat="46.472397356943084" lon="6.292374037992886"><ele></ele><time>2013-10-4T22:47:43Z</time></trkpt>
<trkpt lat="46.47291335100455" lon="6.292096026278223"><ele></ele><time>2013-10-4T22:47:46Z</time></trkpt>
<trkpt lat="46.473152414961916" lon="6.291381056753081"><ele></ele><time>2013-10-4T22:47:49Z</time></trkpt>
<trkpt lat="46.4734763830906" lon="6.29091905601094"><ele></ele><time>2013-10-4T22:47:52Z</time></trkpt>
<trkpt lat="46.47360236866859" lon="6.2905880582960885"><ele></ele><time>2013-10-4T22:47:55Z</time></trkpt>
<trkpt lat="46.47377136650162" lon="6.289500091494325"><ele></ele><time>2013-10-4T22:47:58Z</time></trkpt>
<trkpt lat="46.473864409338226" lon="6.289279063423038"><ele></ele><time>2013-10-4T22:48:1Z</time></trkpt>
<trkpt lat="46.474581409082106" lon="6.288546087904491"><ele></ele><time>2013-10-4T22:48:4Z</time></trkpt>
<trkpt lat="46.47514744088436" lon="6.288393135901538"><ele></ele><time>2013-10-4T22:48:7Z</time></trkpt>
<trkpt lat="46.47530242454736" lon="6.2882501453862725"><ele></ele><time>2013-10-4T22:48:10Z</time></trkpt>
<trkpt lat="46.47600241037374" lon="6.287442151226937"><ele></ele><time>2013-10-4T22:48:13Z</time></trkpt>
<trkpt lat="46.47616544434109" lon="6.287087182425048"><ele></ele><time>2013-10-4T22:48:16Z</time></trkpt>
<trkpt lat="46.47614348695017" lon="6.28690512661361"><ele></ele><time>2013-10-4T22:48:19Z</time></trkpt>
<trkpt lat="46.47535249490258" lon="6.28649815981625"><ele></ele><time>2013-10-4T22:48:22Z</time></trkpt>
<trkpt lat="46.47387745341147" lon="6.286280099672556"><ele></ele><time>2013-10-4T22:48:25Z</time></trkpt>
<trkpt lat="46.473334471959916" lon="6.28642508957555"><ele></ele><time>2013-10-4T22:48:28Z</time></trkpt>
<trkpt lat="46.472694414314226" lon="6.287369040226462"><ele></ele><time>2013-10-4T22:48:31Z</time></trkpt>
<trkpt lat="46.472390484048226" lon="6.287534992467548"><ele></ele><time>2013-10-4T22:48:34Z</time></trkpt>
<trkpt lat="46.47199947128893" lon="6.287392990518541"><ele></ele><time>2013-10-4T22:48:37Z</time></trkpt>
<trkpt lat="46.47116749880628" lon="6.286585953743614"><ele></ele><time>2013-10-4T22:48:40Z</time></trkpt>
<trkpt lat="46.47073943077247" lon="6.286864974042361"><ele></ele><time>2013-10-4T22:48:43Z</time></trkpt>
<trkpt lat="46.47029844648957" lon="6.287611956067495"><ele></ele><time>2013-10-4T22:48:46Z</time></trkpt>
<trkpt lat="46.47026147513277" lon="6.288026943351119"><ele></ele><time>2013-10-4T22:48:49Z</time></trkpt>
<trkpt lat="46.4705933856382" lon="6.288738997258738"><ele></ele><time>2013-10-4T22:48:52Z</time></trkpt>
<trkpt lat="46.4705684025611" lon="6.289029010617733"><ele></ele><time>2013-10-4T22:48:55Z</time></trkpt>
<trkpt lat="46.47011141242231" lon="6.289571976414"><ele></ele><time>2013-10-4T22:48:58Z</time></trkpt>
<trkpt lat="46.46954437914823" lon="6.289476907597668"><ele></ele><time>2013-10-4T22:49:1Z</time></trkpt>
<trkpt lat="46.469411439350715" lon="6.289649906054007"><ele></ele><time>2013-10-4T22:49:4Z</time></trkpt>
<trkpt lat="46.469102154063656" lon="6.290324176380169"><ele></ele><time>2013-10-4T22:49:7Z</time></trkpt>
<trkpt lat="46.469531359935765" lon="6.291046923108427"><ele></ele><time>2013-10-4T22:49:10Z</time></trkpt>
<trkpt lat="46.46971441162836" lon="6.291553950751266"><ele></ele><time>2013-10-4T22:49:13Z</time></trkpt>
<trkpt lat="46.4696963862728" lon="6.291800965127003"><ele></ele><time>2013-10-4T22:49:16Z</time></trkpt>
<trkpt lat="46.46957233379979" lon="6.2918289567905585"><ele></ele><time>2013-10-4T22:49:19Z</time></trkpt>
<trkpt lat="46.46927698657773" lon="6.292045715624287"><ele></ele><time>2013-10-4T22:49:22Z</time></trkpt>
<trkpt lat="46.46947130959937" lon="6.293119935683582"><ele></ele><time>2013-10-4T22:49:25Z</time></trkpt>
<trkpt lat="46.46938530596547" lon="6.293432913560306"><ele></ele><time>2013-10-4T22:49:28Z</time></trkpt>
<trkpt lat="46.46926234176706" lon="6.293539946690019"><ele></ele><time>2013-10-4T22:49:31Z</time></trkpt>
<trkpt lat="46.46905832687128" lon="6.293520913300035"><ele></ele><time>2013-10-4T22:49:34Z</time></trkpt>
<trkpt lat="46.46884736328512" lon="6.293024948893418"><ele></ele><time>2013-10-4T22:49:37Z</time></trkpt>
<trkpt lat="46.46854838509162" lon="6.292802902589026"><ele></ele><time>2013-10-4T22:49:40Z</time></trkpt>
<trkpt lat="46.46837337199195" lon="6.292757886186704"><ele></ele><time>2013-10-4T22:49:43Z</time></trkpt>
<trkpt lat="46.46798939333727" lon="6.293001871504055"><ele></ele><time>2013-10-4T22:49:46Z</time></trkpt>
<trkpt lat="46.46767108296895" lon="6.293381710174559"><ele></ele><time>2013-10-4T22:49:49Z</time></trkpt>
<trkpt lat="46.467505315591616" lon="6.294358887769883"><ele></ele><time>2013-10-4T22:49:52Z</time></trkpt>
<trkpt lat="46.46737531015798" lon="6.294491904605001"><ele></ele><time>2013-10-4T22:49:55Z</time></trkpt>
<trkpt lat="46.467265331805365" lon="6.294949888809452"><ele></ele><time>2013-10-4T22:49:58Z</time></trkpt>
<trkpt lat="46.46726531307232" lon="6.296029898198752"><ele></ele><time>2013-10-4T22:50:1Z</time></trkpt>
<trkpt lat="46.46709230668625" lon="6.296269866876923"><ele></ele><time>2013-10-4T22:50:4Z</time></trkpt>
<trkpt lat="46.46696632763192" lon="6.296225857854653"><ele></ele><time>2013-10-4T22:50:7Z</time></trkpt>
<trkpt lat="46.46653734695893" lon="6.295966843201706"><ele></ele><time>2013-10-4T22:50:10Z</time></trkpt>
<trkpt lat="46.4664262903418" lon="6.295768858921928"><ele></ele><time>2013-10-4T22:50:13Z</time></trkpt>
<trkpt lat="46.46636931190929" lon="6.294706868837161"><ele></ele><time>2013-10-4T22:50:16Z</time></trkpt>
<trkpt lat="46.46616833373358" lon="6.293579830562152"><ele></ele><time>2013-10-4T22:50:19Z</time></trkpt>
<trkpt lat="46.46549838466055" lon="6.292690823754236"><ele></ele><time>2013-10-4T22:50:22Z</time></trkpt>
<trkpt lat="46.464949387705396" lon="6.291719761848033"><ele></ele><time>2013-10-4T22:50:25Z</time></trkpt>
<trkpt lat="46.464768424064296" lon="6.291640798505849"><ele></ele><time>2013-10-4T22:50:28Z</time></trkpt>
<trkpt lat="46.464653428595085" lon="6.291406771876258"><ele></ele><time>2013-10-4T22:50:31Z</time></trkpt>
<trkpt lat="46.46453936104292" lon="6.2908327749175195"><ele></ele><time>2013-10-4T22:50:34Z</time></trkpt>
<trkpt lat="46.46430341887944" lon="6.2903697506165415"><ele></ele><time>2013-10-4T22:50:37Z</time></trkpt>
<trkpt lat="46.46391442148961" lon="6.290016775973352"><ele></ele><time>2013-10-4T22:50:40Z</time></trkpt>
<trkpt lat="46.463498431200385" lon="6.289848789274735"><ele></ele><time>2013-10-4T22:50:43Z</time></trkpt>
<trkpt lat="46.463161404649995" lon="6.289316778629264"><ele></ele><time>2013-10-4T22:50:46Z</time></trkpt>
<trkpt lat="46.46312143107049" lon="6.28885476636298"><ele></ele><time>2013-10-4T22:50:49Z</time></trkpt>
<trkpt lat="46.463812451231185" lon="6.2878697459468675"><ele></ele><time>2013-10-4T22:50:52Z</time></trkpt>
<trkpt lat="46.46383843991146" lon="6.287592724575544"><ele></ele><time>2013-10-4T22:50:55Z</time></trkpt>
<trkpt lat="46.46367450455139" lon="6.286764754104077"><ele></ele><time>2013-10-4T22:50:58Z</time></trkpt>
<trkpt lat="46.463850447406806" lon="6.286363769008152"><ele></ele><time>2013-10-4T22:51:1Z</time></trkpt>
<trkpt lat="46.464153460120166" lon="6.285939737683348"><ele></ele><time>2013-10-4T22:51:4Z</time></trkpt>
<trkpt lat="46.46437550617909" lon="6.285377737522139"><ele></ele><time>2013-10-4T22:51:7Z</time></trkpt>
<trkpt lat="46.46477759402795" lon="6.285273018269138"><ele></ele><time>2013-10-4T22:51:10Z</time></trkpt>
<trkpt lat="46.46513308256907" lon="6.284842315074202"><ele></ele><time>2013-10-4T22:51:13Z</time></trkpt>
<trkpt lat="46.46555834420588" lon="6.284637967629791"><ele></ele><time>2013-10-4T22:51:16Z</time></trkpt>
<trkpt lat="46.46573592210684" lon="6.284406340244292"><ele></ele><time>2013-10-4T22:51:19Z</time></trkpt>
<trkpt lat="46.46568631767331" lon="6.283951701477395"><ele></ele><time>2013-10-4T22:51:22Z</time></trkpt>
<trkpt lat="46.46550013672456" lon="6.283337225814041"><ele></ele><time>2013-10-4T22:51:25Z</time></trkpt>
<trkpt lat="46.4660774890983" lon="6.283076789016466"><ele></ele><time>2013-10-4T22:51:28Z</time></trkpt>
<trkpt lat="46.466176566302494" lon="6.282889791704364"><ele></ele><time>2013-10-4T22:51:31Z</time></trkpt>
<trkpt lat="46.46613256585743" lon="6.282632800893577"><ele></ele><time>2013-10-4T22:51:34Z</time></trkpt>
<trkpt lat="46.46578656884836" lon="6.282206821166762"><ele></ele><time>2013-10-4T22:51:37Z</time></trkpt>
<trkpt lat="46.46531058438788" lon="6.280882799286534"><ele></ele><time>2013-10-4T22:51:40Z</time></trkpt>
<trkpt lat="46.46500858137528" lon="6.28108378795254"><ele></ele><time>2013-10-4T22:51:43Z</time></trkpt>
<trkpt lat="46.46450054415967" lon="6.281705793514754"><ele></ele><time>2013-10-4T22:51:46Z</time></trkpt>
<trkpt lat="46.46409854633645" lon="6.281841735373673"><ele></ele><time>2013-10-4T22:51:49Z</time></trkpt>
<trkpt lat="46.46383753642286" lon="6.28171876444653"><ele></ele><time>2013-10-4T22:51:52Z</time></trkpt>
<trkpt lat="46.46361357287836" lon="6.2816867384378225"><ele></ele><time>2013-10-4T22:51:55Z</time></trkpt>
<trkpt lat="46.4634385571295" lon="6.281794775729401"><ele></ele><time>2013-10-4T22:51:58Z</time></trkpt>
<trkpt lat="46.463267568125474" lon="6.281705754399842"><ele></ele><time>2013-10-4T22:52:1Z</time></trkpt>
<trkpt lat="46.463069600444335" lon="6.280985741886306"><ele></ele><time>2013-10-4T22:52:4Z</time></trkpt>
<trkpt lat="46.46283558168891" lon="6.280778701235799"><ele></ele><time>2013-10-4T22:52:7Z</time></trkpt>
<trkpt lat="46.462587560588744" lon="6.2808346845353125"><ele></ele><time>2013-10-4T22:52:10Z</time></trkpt>
<trkpt lat="46.46205757587246" lon="6.280709693405679"><ele></ele><time>2013-10-4T22:52:13Z</time></trkpt>
<trkpt lat="46.46191960787116" lon="6.280829718004606"><ele></ele><time>2013-10-4T22:52:16Z</time></trkpt>
<trkpt lat="46.461708543266646" lon="6.281323657375262"><ele></ele><time>2013-10-4T22:52:19Z</time></trkpt>
<trkpt lat="46.46143160642956" lon="6.281277715706032"><ele></ele><time>2013-10-4T22:52:22Z</time></trkpt>
<trkpt lat="46.461299588578576" lon="6.281454653676636"><ele></ele><time>2013-10-4T22:52:25Z</time></trkpt>
<trkpt lat="46.46121257327582" lon="6.282101650701347"><ele></ele><time>2013-10-4T22:52:28Z</time></trkpt>
<trkpt lat="46.46088851511727" lon="6.28292164286888"><ele></ele><time>2013-10-4T22:52:31Z</time></trkpt>
<trkpt lat="46.46049154059142" lon="6.2833936157365775"><ele></ele><time>2013-10-4T22:52:34Z</time></trkpt>
<trkpt lat="46.460200518923216" lon="6.2835346740789015"><ele></ele><time>2013-10-4T22:52:37Z</time></trkpt>
<trkpt lat="46.46005249623446" lon="6.283449676790864"><ele></ele><time>2013-10-4T22:52:40Z</time></trkpt>
<trkpt lat="46.45983055011073" lon="6.283087654959977"><ele></ele><time>2013-10-4T22:52:43Z</time></trkpt>
<trkpt lat="46.4596025739306" lon="6.282444587423979"><ele></ele><time>2013-10-4T22:52:46Z</time></trkpt>
<trkpt lat="46.45930954898645" lon="6.282105613592464"><ele></ele><time>2013-10-4T22:52:49Z</time></trkpt>
<trkpt lat="46.458677560088326" lon="6.281786577942537"><ele></ele><time>2013-10-4T22:52:52Z</time></trkpt>
<trkpt lat="46.45827557404604" lon="6.281249536061389"><ele></ele><time>2013-10-4T22:52:55Z</time></trkpt>
<trkpt lat="46.45814758798872" lon="6.280940574713955"><ele></ele><time>2013-10-4T22:52:58Z</time></trkpt>
<trkpt lat="46.45825756193802" lon="6.280736562468089"><ele></ele><time>2013-10-4T22:53:1Z</time></trkpt>
<trkpt lat="46.458224625687244" lon="6.28047454284938"><ele></ele><time>2013-10-4T22:53:4Z</time></trkpt>
<trkpt lat="46.45804559408405" lon="6.280156527414921"><ele></ele><time>2013-10-4T22:53:7Z</time></trkpt>
<trkpt lat="46.457939571792714" lon="6.279663583795699"><ele></ele><time>2013-10-4T22:53:10Z</time></trkpt>
<trkpt lat="46.4580266173002" lon="6.277288571791243"><ele></ele><time>2013-10-4T22:53:13Z</time></trkpt>
<trkpt lat="46.45809166245606" lon="6.277191595138088"><ele></ele><time>2013-10-4T22:53:16Z</time></trkpt>
<trkpt lat="46.45835962935972" lon="6.277311548818991"><ele></ele><time>2013-10-4T22:53:19Z</time></trkpt>
<trkpt lat="46.458418635815164" lon="6.27742856218612"><ele></ele><time>2013-10-4T22:53:22Z</time></trkpt>
<trkpt lat="46.45870259082821" lon="6.278767581652229"><ele></ele><time>2013-10-4T22:53:25Z</time></trkpt>
<trkpt lat="46.459161572401214" lon="6.279379643453691"><ele></ele><time>2013-10-4T22:53:28Z</time></trkpt>
<trkpt lat="46.459853560873995" lon="6.280543661559932"><ele></ele><time>2013-10-4T22:53:31Z</time></trkpt>
<trkpt lat="46.45996856176082" lon="6.280465629612086"><ele></ele><time>2013-10-4T22:53:34Z</time></trkpt>
<trkpt lat="46.45989062635581" lon="6.2795395934994"><ele></ele><time>2013-10-4T22:53:37Z</time></trkpt>
<trkpt lat="46.45994561380382" lon="6.279410597621122"><ele></ele><time>2013-10-4T22:53:40Z</time></trkpt>
<trkpt lat="46.46012557314671" lon="6.279400628863161"><ele></ele><time>2013-10-4T22:53:43Z</time></trkpt>
<trkpt lat="46.460197575341944" lon="6.279299629111527"><ele></ele><time>2013-10-4T22:53:46Z</time></trkpt>
<trkpt lat="46.460313586282695" lon="6.278979611399094"><ele></ele><time>2013-10-4T22:53:49Z</time></trkpt>
<trkpt lat="46.46033664308036" lon="6.278601671722803"><ele></ele><time>2013-10-4T22:53:52Z</time></trkpt>
<trkpt lat="46.460390624127236" lon="6.278505616727304"><ele></ele><time>2013-10-4T22:53:55Z</time></trkpt>
<trkpt lat="46.46052858983677" lon="6.278516685234343"><ele></ele><time>2013-10-4T22:53:58Z</time></trkpt>
<trkpt lat="46.461011660780166" lon="6.277220689368722"><ele></ele><time>2013-10-4T22:54:1Z</time></trkpt>
<trkpt lat="46.46131065274793" lon="6.276650645045959"><ele></ele><time>2013-10-4T22:54:4Z</time></trkpt>
<trkpt lat="46.46168767056635" lon="6.276626684756943"><ele></ele><time>2013-10-4T22:54:7Z</time></trkpt>
<trkpt lat="46.462289664952166" lon="6.276222695734898"><ele></ele><time>2013-10-4T22:54:10Z</time></trkpt>
<trkpt lat="46.46310564680877" lon="6.275943687813449"><ele></ele><time>2013-10-4T22:54:13Z</time></trkpt>
<trkpt lat="46.46360764471879" lon="6.275570708687894"><ele></ele><time>2013-10-4T22:54:16Z</time></trkpt>
<trkpt lat="46.46430468323468" lon="6.275539801569765"><ele></ele><time>2013-10-4T22:54:19Z</time></trkpt>
<trkpt lat="46.46505571702564" lon="6.274599794032937"><ele></ele><time>2013-10-4T22:54:22Z</time></trkpt>
<trkpt lat="46.4662177002191" lon="6.274499834719077"><ele></ele><time>2013-10-4T22:54:25Z</time></trkpt>
<trkpt lat="46.46682170361075" lon="6.274249821471563"><ele></ele><time>2013-10-4T22:54:28Z</time></trkpt>
<trkpt lat="46.46703167421483" lon="6.274006836522876"><ele></ele><time>2013-10-4T22:54:31Z</time></trkpt>
<trkpt lat="46.46716268984242" lon="6.27362487697724"><ele></ele><time>2013-10-4T22:54:34Z</time></trkpt>
<trkpt lat="46.468193658143285" lon="6.273866895477251"><ele></ele><time>2013-10-4T22:54:37Z</time></trkpt>
<trkpt lat="46.46992868679472" lon="6.275166901145516"><ele></ele><time>2013-10-4T22:54:40Z</time></trkpt>
<trkpt lat="46.470259669859495" lon="6.276185984423133"><ele></ele><time>2013-10-4T22:54:43Z</time></trkpt>
<trkpt lat="46.47149364458276" lon="6.276602017793406"><ele></ele><time>2013-10-4T22:54:46Z</time></trkpt>
<trkpt lat="46.47224265407552" lon="6.2763899791696005"><ele></ele><time>2013-10-4T22:54:49Z</time></trkpt>
<trkpt lat="46.47306065564071" lon="6.275657006944808"><ele></ele><time>2013-10-4T22:54:52Z</time></trkpt>
<trkpt lat="46.47487168280218" lon="6.273613135278883"><ele></ele><time>2013-10-4T22:54:55Z</time></trkpt>
<trkpt lat="46.476085735046574" lon="6.272522100373435"><ele></ele><time>2013-10-4T22:54:58Z</time></trkpt>
<trkpt lat="46.47702176400777" lon="6.271200135025044"><ele></ele><time>2013-10-4T22:55:1Z</time></trkpt>
<trkpt lat="46.47724271929668" lon="6.270707201843939"><ele></ele><time>2013-10-4T22:55:4Z</time></trkpt>
<trkpt lat="46.47782177406876" lon="6.268782146726444"><ele></ele><time>2013-10-4T22:55:7Z</time></trkpt>
<trkpt lat="46.47783276141847" lon="6.268378222794554"><ele></ele><time>2013-10-4T22:55:10Z</time></trkpt>
<trkpt lat="46.477579814435465" lon="6.267321172016013"><ele></ele><time>2013-10-4T22:55:13Z</time></trkpt>
<trkpt lat="46.4776847649865" lon="6.266792192955923"><ele></ele><time>2013-10-4T22:55:16Z</time></trkpt>
<trkpt lat="46.4781658159134" lon="6.265984192009633"><ele></ele><time>2013-10-4T22:55:19Z</time></trkpt>
<trkpt lat="46.47834284961818" lon="6.2655191692168675"><ele></ele><time>2013-10-4T22:55:22Z</time></trkpt>
<trkpt lat="46.479013831086974" lon="6.264890211907068"><ele></ele><time>2013-10-4T22:55:25Z</time></trkpt>
<trkpt lat="46.47904183872026" lon="6.264199208086939"><ele></ele><time>2013-10-4T22:55:28Z</time></trkpt>
<trkpt lat="46.47896087448438" lon="6.263923189206376"><ele></ele><time>2013-10-4T22:55:31Z</time></trkpt>
<trkpt lat="46.47914385909282" lon="6.2634722482186"><ele></ele><time>2013-10-4T22:55:34Z</time></trkpt>
<trkpt lat="46.47915182632839" lon="6.263219198592348"><ele></ele><time>2013-10-4T22:55:37Z</time></trkpt>
<trkpt lat="46.47819089562597" lon="6.260188185473269"><ele></ele><time>2013-10-4T22:55:40Z</time></trkpt>
<trkpt lat="46.47831395468843" lon="6.259454185479605"><ele></ele><time>2013-10-4T22:55:43Z</time></trkpt>
<trkpt lat="46.47825093586222" lon="6.25871422842947"><ele></ele><time>2013-10-4T22:55:46Z</time></trkpt>
<trkpt lat="46.47833593530973" lon="6.25831215088477"><ele></ele><time>2013-10-4T22:55:49Z</time></trkpt>
<trkpt lat="46.47877296883298" lon="6.25821619187583"><ele></ele><time>2013-10-4T22:55:52Z</time></trkpt>
<trkpt lat="46.479065921609745" lon="6.257894251992719"><ele></ele><time>2013-10-4T22:55:55Z</time></trkpt>
<trkpt lat="46.47937395910652" lon="6.257725198632911"><ele></ele><time>2013-10-4T22:55:58Z</time></trkpt>
<trkpt lat="46.4795469651867" lon="6.257507190633657"><ele></ele><time>2013-10-4T22:56:1Z</time></trkpt>
<trkpt lat="46.4796240025776" lon="6.257063203289258"><ele></ele><time>2013-10-4T22:56:4Z</time></trkpt>
<trkpt lat="46.47967696446293" lon="6.2577272199025815"><ele></ele><time>2013-10-4T22:56:7Z</time></trkpt>
<trkpt lat="46.4793502894685" lon="6.258818924050022"><ele></ele><time>2013-10-4T22:56:10Z</time></trkpt>
<trkpt lat="46.47938288518167" lon="6.260147235733255"><ele></ele><time>2013-10-4T22:56:13Z</time></trkpt>
<trkpt lat="46.48011291293691" lon="6.2621432432043544"><ele></ele><time>2013-10-4T22:56:16Z</time></trkpt>
<trkpt lat="46.4803938663439" lon="6.262577267430661"><ele></ele><time>2013-10-4T22:56:19Z</time></trkpt>
<trkpt lat="46.480896856883156" lon="6.2629652820023525"><ele></ele><time>2013-10-4T22:56:22Z</time></trkpt>
<trkpt lat="46.48115685612785" lon="6.263367286663833"><ele></ele><time>2013-10-4T22:56:25Z</time></trkpt>
<trkpt lat="46.48124988292715" lon="6.264063323454412"><ele></ele><time>2013-10-4T22:56:28Z</time></trkpt>
<trkpt lat="46.48115381361152" lon="6.264795312653579"><ele></ele><time>2013-10-4T22:56:31Z</time></trkpt>
<trkpt lat="46.48098281430159" lon="6.265292270711754"><ele></ele><time>2013-10-4T22:56:34Z</time></trkpt>
<trkpt lat="46.4798147670298" lon="6.26703927534037"><ele></ele><time>2013-10-4T22:56:37Z</time></trkpt>
<trkpt lat="46.47957883167183" lon="6.267865101324574"><ele></ele><time>2013-10-4T22:56:40Z</time></trkpt>
<trkpt lat="46.479053734088545" lon="6.269379229246848"><ele></ele><time>2013-10-4T22:56:43Z</time></trkpt>
<trkpt lat="46.479057750485566" lon="6.2697741850085995"><ele></ele><time>2013-10-4T22:56:46Z</time></trkpt>
<trkpt lat="46.47916277007956" lon="6.270089264359111"><ele></ele><time>2013-10-4T22:56:49Z</time></trkpt>
<trkpt lat="46.479318753941556" lon="6.270269228921424"><ele></ele><time>2013-10-4T22:56:52Z</time></trkpt>
<trkpt lat="46.47965369228311" lon="6.270387256827616"><ele></ele><time>2013-10-4T22:56:55Z</time></trkpt>
<trkpt lat="46.480012764757085" lon="6.270832263834688"><ele></ele><time>2013-10-4T22:56:58Z</time></trkpt>
<trkpt lat="46.480268456388366" lon="6.271496754383226"><ele></ele><time>2013-10-4T22:57:1Z</time></trkpt>
<trkpt lat="46.480613444147146" lon="6.272238174926961"><ele></ele><time>2013-10-4T22:57:4Z</time></trkpt>
<trkpt lat="46.48041139945975" lon="6.272275081480234"><ele></ele><time>2013-10-4T22:57:7Z</time></trkpt>
<trkpt lat="46.480231172879535" lon="6.2722464013849315"><ele></ele><time>2013-10-4T22:57:10Z</time></trkpt>
<trkpt lat="46.48093961408169" lon="6.2733381569699285"><ele></ele><time>2013-10-4T22:57:13Z</time></trkpt>
<trkpt lat="46.481216796457566" lon="6.274048496039203"><ele></ele><time>2013-10-4T22:57:16Z</time></trkpt>
<trkpt lat="46.48124195235774" lon="6.2743084277957335"><ele></ele><time>2013-10-4T22:57:19Z</time></trkpt>
<trkpt lat="46.481627559635676" lon="6.274625736717215"><ele></ele><time>2013-10-4T22:57:22Z</time></trkpt>
<trkpt lat="46.48194904037854" lon="6.275270021521044"><ele></ele><time>2013-10-4T22:57:25Z</time></trkpt>
<trkpt lat="46.48293065885152" lon="6.276218320520065"><ele></ele><time>2013-10-4T22:57:28Z</time></trkpt>
<trkpt lat="46.48360464395715" lon="6.276383381637875"><ele></ele><time>2013-10-4T22:57:31Z</time></trkpt>
<trkpt lat="46.48454165508229" lon="6.27642138129152"><ele></ele><time>2013-10-4T22:57:34Z</time></trkpt>
<trkpt lat="46.48563433495543" lon="6.277144612206675"><ele></ele><time>2013-10-4T22:57:37Z</time></trkpt>
<trkpt lat="46.48595314001628" lon="6.277528521847206"><ele></ele><time>2013-10-4T22:57:40Z</time></trkpt>
<trkpt lat="46.48616050869579" lon="6.278012508582408"><ele></ele><time>2013-10-4T22:57:43Z</time></trkpt>
<trkpt lat="46.48641354138197" lon="6.278821432891903"><ele></ele><time>2013-10-4T22:57:46Z</time></trkpt>
<trkpt lat="46.48650254459173" lon="6.27953850816571"><ele></ele><time>2013-10-4T22:57:49Z</time></trkpt>
<trkpt lat="46.48623106205791" lon="6.280518271857433"><ele></ele><time>2013-10-4T22:57:52Z</time></trkpt>
<trkpt lat="46.486534002096086" lon="6.281553787724642"><ele></ele><time>2013-10-4T22:57:55Z</time></trkpt>
<trkpt lat="46.48658891771358" lon="6.282529481291759"><ele></ele><time>2013-10-4T22:57:58Z</time></trkpt>
<trkpt lat="46.48684223162732" lon="6.2831101997257965"><ele></ele><time>2013-10-4T22:58:1Z</time></trkpt>
<trkpt lat="46.488453008832664" lon="6.284476076258128"><ele></ele><time>2013-10-4T22:58:4Z</time></trkpt>
<trkpt lat="46.4886586948905" lon="6.284797329978577"><ele></ele><time>2013-10-4T22:58:7Z</time></trkpt>
<trkpt lat="46.48893316188594" lon="6.285247376439074"><ele></ele><time>2013-10-4T22:58:10Z</time></trkpt>
<trkpt lat="46.489759473331645" lon="6.285709541203143"><ele></ele><time>2013-10-4T22:58:13Z</time></trkpt>
<trkpt lat="46.4903448344776" lon="6.286943245680437"><ele></ele><time>2013-10-4T22:58:16Z</time></trkpt>
<trkpt lat="46.4909132681167" lon="6.287549895523394"><ele></ele><time>2013-10-4T22:58:19Z</time></trkpt>
<trkpt lat="46.49163844541297" lon="6.288088099856479"><ele></ele><time>2013-10-4T22:58:22Z</time></trkpt>
<trkpt lat="46.49177699100252" lon="6.288443376374528"><ele></ele><time>2013-10-4T22:58:25Z</time></trkpt>
<trkpt lat="46.49173531312087" lon="6.288769913564511"><ele></ele><time>2013-10-4T22:58:28Z</time></trkpt>
<trkpt lat="46.49131441129263" lon="6.289796609884786"><ele></ele><time>2013-10-4T22:58:31Z</time></trkpt>
<trkpt lat="46.491181380246516" lon="6.290395660872344"><ele></ele><time>2013-10-4T22:58:34Z</time></trkpt>
<trkpt lat="46.49122163456953" lon="6.29135344354167"><ele></ele><time>2013-10-4T22:58:37Z</time></trkpt>
<trkpt lat="46.49154170603797" lon="6.291867709070814"><ele></ele><time>2013-10-4T22:58:40Z</time></trkpt>
<trkpt lat="46.49171454629132" lon="6.293394616724805"><ele></ele><time>2013-10-4T22:58:43Z</time></trkpt>
<trkpt lat="46.49215130507516" lon="6.294329784979486"><ele></ele><time>2013-10-4T22:58:46Z</time></trkpt>
<trkpt lat="46.492471690805395" lon="6.29487663566917"><ele></ele><time>2013-10-4T22:58:49Z</time></trkpt>
<trkpt lat="46.49272625393345" lon="6.294839714814044"><ele></ele><time>2013-10-4T22:58:52Z</time></trkpt>
<trkpt lat="46.49374827312506" lon="6.2939826965309695"><ele></ele><time>2013-10-4T22:58:55Z</time></trkpt>
<trkpt lat="46.49412488102071" lon="6.293767041119219"><ele></ele><time>2013-10-4T22:58:58Z</time></trkpt>
<trkpt lat="46.494583271802576" lon="6.294307773267522"><ele></ele><time>2013-10-4T22:59:1Z</time></trkpt>
<trkpt lat="46.49488627629589" lon="6.2943647797789"><ele></ele><time>2013-10-4T22:59:4Z</time></trkpt>
<trkpt lat="46.49557627945257" lon="6.294040756776088"><ele></ele><time>2013-10-4T22:59:7Z</time></trkpt>
<trkpt lat="46.4963443234219" lon="6.293406773162449"><ele></ele><time>2013-10-4T22:59:10Z</time></trkpt>
<trkpt lat="46.49743732356755" lon="6.293343859332438"><ele></ele><time>2013-10-4T22:59:13Z</time></trkpt>
<trkpt lat="46.49848631232739" lon="6.293653855319487"><ele></ele><time>2013-10-4T22:59:16Z</time></trkpt>
<trkpt lat="46.500931303524794" lon="6.294090964855955"><ele></ele><time>2013-10-4T22:59:19Z</time></trkpt>
<trkpt lat="46.50160426095984" lon="6.295531920211217"><ele></ele><time>2013-10-4T22:59:22Z</time></trkpt>
<trkpt lat="46.502051262988225" lon="6.295789007423628"><ele></ele><time>2013-10-4T22:59:25Z</time></trkpt>
<trkpt lat="46.502405000840916" lon="6.296328088527805"><ele></ele><time>2013-10-4T22:59:28Z</time></trkpt>
<trkpt lat="46.50234212250759" lon="6.296785416471089"><ele></ele><time>2013-10-4T22:59:31Z</time></trkpt>
<trkpt lat="46.502063856682675" lon="6.298191851853083"><ele></ele><time>2013-10-4T22:59:34Z</time></trkpt>
<trkpt lat="46.502176943454394" lon="6.298254614383219"><ele></ele><time>2013-10-4T22:59:37Z</time></trkpt>
<trkpt lat="46.502009460741355" lon="6.299495851787704"><ele></ele><time>2013-10-4T22:59:40Z</time></trkpt>
<trkpt lat="46.50256223531934" lon="6.299946032020636"><ele></ele><time>2013-10-4T22:59:43Z</time></trkpt>
<trkpt lat="46.50345816437121" lon="6.30062700650359"><ele></ele><time>2013-10-4T22:59:46Z</time></trkpt>
<trkpt lat="46.503806185747855" lon="6.300333063793946"><ele></ele><time>2013-10-4T22:59:49Z</time></trkpt>
<trkpt lat="46.504512190003055" lon="6.300496030241186"><ele></ele><time>2013-10-4T22:59:52Z</time></trkpt>
<trkpt lat="46.50504093702793" lon="6.3012562086952775"><ele></ele><time>2013-10-4T22:59:55Z</time></trkpt>
<trkpt lat="46.50545579555571" lon="6.302257275345904"><ele></ele><time>2013-10-4T22:59:58Z</time></trkpt>
<trkpt lat="46.50543851764829" lon="6.302778812386323"><ele></ele><time>2013-10-4T23:0:1Z</time></trkpt>
<trkpt lat="46.50544274799882" lon="6.303202178070684"><ele></ele><time>2013-10-4T23:0:4Z</time></trkpt>
<trkpt lat="46.505447627212575" lon="6.303690677020372"><ele></ele><time>2013-10-4T23:0:7Z</time></trkpt>
<trkpt lat="46.50539214556313" lon="6.30395611049762"><ele></ele><time>2013-10-4T23:0:10Z</time></trkpt>
<trkpt lat="46.50532709467634" lon="6.304384088823088"><ele></ele><time>2013-10-4T23:0:13Z</time></trkpt>
<trkpt lat="46.50542506272348" lon="6.305331080160091"><ele></ele><time>2013-10-4T23:0:16Z</time></trkpt>
<trkpt lat="46.50502203573857" lon="6.306808044052945"><ele></ele><time>2013-10-4T23:0:19Z</time></trkpt>
<trkpt lat="46.50495806278516" lon="6.307917052672613"><ele></ele><time>2013-10-4T23:0:22Z</time></trkpt>
<trkpt lat="46.50471103472351" lon="6.308707040048155"><ele></ele><time>2013-10-4T23:0:25Z</time></trkpt>
<trkpt lat="46.50472502362933" lon="6.309222108908709"><ele></ele><time>2013-10-4T23:0:28Z</time></trkpt>
<trkpt lat="46.504842025779745" lon="6.309752100790916"><ele></ele><time>2013-10-4T23:0:31Z</time></trkpt>
<trkpt lat="46.505267980281765" lon="6.310534062568532"><ele></ele><time>2013-10-4T23:0:34Z</time></trkpt>
<trkpt lat="46.50564197717566" lon="6.310726103831595"><ele></ele><time>2013-10-4T23:0:37Z</time></trkpt>
<trkpt lat="46.505794021347626" lon="6.310925095145765"><ele></ele><time>2013-10-4T23:0:40Z</time></trkpt>
<trkpt lat="46.50587095111976" lon="6.311858088050526"><ele></ele><time>2013-10-4T23:0:43Z</time></trkpt>
<trkpt lat="46.50820196331662" lon="6.311457170223263"><ele></ele><time>2013-10-4T23:0:46Z</time></trkpt>
<trkpt lat="46.50823498645855" lon="6.311546187146732"><ele></ele><time>2013-10-4T23:0:49Z</time></trkpt>
<trkpt lat="46.50787898403444" lon="6.3129022015653184"><ele></ele><time>2013-10-4T23:0:52Z</time></trkpt>
<trkpt lat="46.50788995889272" lon="6.3132181999468"><ele></ele><time>2013-10-4T23:0:55Z</time></trkpt>
<trkpt lat="46.50803092918721" lon="6.31398716084851"><ele></ele><time>2013-10-4T23:0:58Z</time></trkpt>
<trkpt lat="46.50838395420461" lon="6.315179163409058"><ele></ele><time>2013-10-4T23:1:1Z</time></trkpt>
<trkpt lat="46.508452917571816" lon="6.31632421840851"><ele></ele><time>2013-10-4T23:1:4Z</time></trkpt>
<trkpt lat="46.508640913083525" lon="6.3169321642706375"><ele></ele><time>2013-10-4T23:1:7Z</time></trkpt>
<trkpt lat="46.509376897709174" lon="6.318665231121041"><ele></ele><time>2013-10-4T23:1:10Z</time></trkpt>
<trkpt lat="46.50953187832487" lon="6.31870320600814"><ele></ele><time>2013-10-4T23:1:13Z</time></trkpt>
<trkpt lat="46.5097538331889" lon="6.3185722036581735"><ele></ele><time>2013-10-4T23:1:16Z</time></trkpt>
<trkpt lat="46.51107684980723" lon="6.3175183034184075"><ele></ele><time>2013-10-4T23:1:19Z</time></trkpt>
<trkpt lat="46.51171890993502" lon="6.317119260654206"><ele></ele><time>2013-10-4T23:1:22Z</time></trkpt>
<trkpt lat="46.51280388509829" lon="6.315810291466017"><ele></ele><time>2013-10-4T23:1:25Z</time></trkpt>
<trkpt lat="46.51361493028875" lon="6.315061309204165"><ele></ele><time>2013-10-4T23:1:28Z</time></trkpt>
<trkpt lat="46.514413912884024" lon="6.31388535204712"><ele></ele><time>2013-10-4T23:1:31Z</time></trkpt>
<trkpt lat="46.51465091692038" lon="6.313173781323963"><ele></ele><time>2013-10-4T23:1:34Z</time></trkpt>
<trkpt lat="46.5146740485855" lon="6.31323845851431"><ele></ele><time>2013-10-4T23:1:37Z</time></trkpt>
<trkpt lat="46.51472514732053" lon="6.313856396641459"><ele></ele><time>2013-10-4T23:1:40Z</time></trkpt>
<trkpt lat="46.51479615213364" lon="6.314213290947411"><ele></ele><time>2013-10-4T23:1:43Z</time></trkpt>
<trkpt lat="46.51506856982318" lon="6.314468269011676"><ele></ele><time>2013-10-4T23:1:46Z</time></trkpt>
<trkpt lat="46.51554819696991" lon="6.315207641485934"><ele></ele><time>2013-10-4T23:1:49Z</time></trkpt>
<trkpt lat="46.51584856901648" lon="6.316015901574117"><ele></ele><time>2013-10-4T23:1:52Z</time></trkpt>
<trkpt lat="46.51625493804318" lon="6.316170378428428"><ele></ele><time>2013-10-4T23:1:55Z</time></trkpt>
<trkpt lat="46.51672941014269" lon="6.316388606727305"><ele></ele><time>2013-10-4T23:1:58Z</time></trkpt>
<trkpt lat="46.51722797595656" lon="6.316769241849556"><ele></ele><time>2013-10-4T23:2:1Z</time></trkpt>
<trkpt lat="46.51777022841888" lon="6.317018656408299"><ele></ele><time>2013-10-4T23:2:4Z</time></trkpt>
<trkpt lat="46.518379940457805" lon="6.31726667929501"><ele></ele><time>2013-10-4T23:2:7Z</time></trkpt>
<trkpt lat="46.51871884761718" lon="6.31742256923683"><ele></ele><time>2013-10-4T23:2:10Z</time></trkpt>
<trkpt lat="46.51887882451138" lon="6.317679908865161"><ele></ele><time>2013-10-4T23:2:13Z</time></trkpt>
<trkpt lat="46.51939248507198" lon="6.31731087902396"><ele></ele><time>2013-10-4T23:2:16Z</time></trkpt>
<trkpt lat="46.519949832113106" lon="6.316810609156026"><ele></ele><time>2013-10-4T23:2:19Z</time></trkpt>
<trkpt lat="46.520618967260496" lon="6.3162428475190415"><ele></ele><time>2013-10-4T23:2:22Z</time></trkpt>
<trkpt lat="46.521153822874744" lon="6.315743021534323"><ele></ele><time>2013-10-4T23:2:25Z</time></trkpt>
<trkpt lat="46.521358133580094" lon="6.315934283063012"><ele></ele><time>2013-10-4T23:2:28Z</time></trkpt>
<trkpt lat="46.52158846822449" lon="6.31648342020733"><ele></ele><time>2013-10-4T23:2:31Z</time></trkpt>
<trkpt lat="46.52200222858333" lon="6.317387179575404"><ele></ele><time>2013-10-4T23:2:34Z</time></trkpt>
<trkpt lat="46.522346916365464" lon="6.318129463984736"><ele></ele><time>2013-10-4T23:2:37Z</time></trkpt>
<trkpt lat="46.52226178455743" lon="6.318619976938767"><ele></ele><time>2013-10-4T23:2:40Z</time></trkpt>
<trkpt lat="46.52208830760975" lon="6.31927523115832"><ele></ele><time>2013-10-4T23:2:43Z</time></trkpt>
<trkpt lat="46.52191514743615" lon="6.3199630577843156"><ele></ele><time>2013-10-4T23:2:46Z</time></trkpt>
<trkpt lat="46.52187498115766" lon="6.3204526354206685"><ele></ele><time>2013-10-4T23:2:49Z</time></trkpt>
<trkpt lat="46.521655239242776" lon="6.320978501249531"><ele></ele><time>2013-10-4T23:2:52Z</time></trkpt>
<trkpt lat="46.52159354217119" lon="6.321566268882949"><ele></ele><time>2013-10-4T23:2:55Z</time></trkpt>
<trkpt lat="46.521577455339106" lon="6.322218260898818"><ele></ele><time>2013-10-4T23:2:58Z</time></trkpt>
<trkpt lat="46.521561045048195" lon="6.322837676119998"><ele></ele><time>2013-10-4T23:3:1Z</time></trkpt>
<trkpt lat="46.52136441795893" lon="6.323428218760847"><ele></ele><time>2013-10-4T23:3:4Z</time></trkpt>
<trkpt lat="46.521100008200655" lon="6.323987569301178"><ele></ele><time>2013-10-4T23:3:7Z</time></trkpt>
<trkpt lat="46.520679784562255" lon="6.324713031689143"><ele></ele><time>2013-10-4T23:3:10Z</time></trkpt>
<trkpt lat="46.520277576415204" lon="6.324981961509354"><ele></ele><time>2013-10-4T23:3:13Z</time></trkpt>
<trkpt lat="46.52014488949831" lon="6.32521276469821"><ele></ele><time>2013-10-4T23:3:16Z</time></trkpt>
<trkpt lat="46.5200822138628" lon="6.3257027845082785"><ele></ele><time>2013-10-4T23:3:19Z</time></trkpt>
<trkpt lat="46.51995143833293" lon="6.326129037851373"><ele></ele><time>2013-10-4T23:3:22Z</time></trkpt>
<trkpt lat="46.51982066120404" lon="6.3265552891359285"><ele></ele><time>2013-10-4T23:3:25Z</time></trkpt>
<trkpt lat="46.519666121507" lon="6.326851698720483"><ele></ele><time>2013-10-4T23:3:28Z</time></trkpt>
<trkpt lat="46.519845696921834" lon="6.326815430616699"><ele></ele><time>2013-10-4T23:3:31Z</time></trkpt>
<trkpt lat="46.520185228027785" lon="6.327036535762206"><ele></ele><time>2013-10-4T23:3:34Z</time></trkpt>
<trkpt lat="46.520412006486794" lon="6.327227375057446"><ele></ele><time>2013-10-4T23:3:37Z</time></trkpt>
<trkpt lat="46.520794599702576" lon="6.327252106550116"><ele></ele><time>2013-10-4T23:3:40Z</time></trkpt>
<trkpt lat="46.5213564499827" lon="6.327207994371452"><ele></ele><time>2013-10-4T23:3:43Z</time></trkpt>
<trkpt lat="46.521829308647774" lon="6.327263456965247"><ele></ele><time>2013-10-4T23:3:46Z</time></trkpt>
<trkpt lat="46.52218877817299" lon="6.327223497157327"><ele></ele><time>2013-10-4T23:3:49Z</time></trkpt>
<trkpt lat="46.52203519185009" lon="6.327617647969046"><ele></ele><time>2013-10-4T23:3:52Z</time></trkpt>
<trkpt lat="46.521617489927486" lon="6.328603706530535"><ele></ele><time>2013-10-4T23:3:55Z</time></trkpt>
<trkpt lat="46.52113009441938" lon="6.3293630979356905"><ele></ele><time>2013-10-4T23:3:58Z</time></trkpt>
<trkpt lat="46.5206426938298" lon="6.330122475669181"><ele></ele><time>2013-10-4T23:4:1Z</time></trkpt>
<trkpt lat="46.52037634610113" lon="6.33048633161456"><ele></ele><time>2013-10-4T23:4:4Z</time></trkpt>
<trkpt lat="46.52018126596475" lon="6.3312397117094035"><ele></ele><time>2013-10-4T23:4:7Z</time></trkpt>
<trkpt lat="46.51996305984522" lon="6.3319283948264635"><ele></ele><time>2013-10-4T23:4:10Z</time></trkpt>
<trkpt lat="46.51970241107516" lon="6.33287859357127"><ele></ele><time>2013-10-4T23:4:13Z</time></trkpt>
<trkpt lat="46.51937176113864" lon="6.333569557969728"><ele></ele><time>2013-10-4T23:4:16Z</time></trkpt>
<trkpt lat="46.519199463768224" lon="6.33435502956188"><ele></ele><time>2013-10-4T23:4:19Z</time></trkpt>
<trkpt lat="46.51920389277779" lon="6.334811080395951"><ele></ele><time>2013-10-4T23:4:22Z</time></trkpt>
<trkpt lat="46.51894195574804" lon="6.335630952307846"><ele></ele><time>2013-10-4T23:4:25Z</time></trkpt>
<trkpt lat="46.51872498638016" lon="6.336449901106036"><ele></ele><time>2013-10-4T23:4:28Z</time></trkpt>
<trkpt lat="46.51848394626112" lon="6.337106427373965"><ele></ele><time>2013-10-4T23:4:31Z</time></trkpt>
<trkpt lat="46.51811018947155" lon="6.337993710999219"><ele></ele><time>2013-10-4T23:4:34Z</time></trkpt>
<trkpt lat="46.51804777396968" lon="6.33851627200585"><ele></ele><time>2013-10-4T23:4:37Z</time></trkpt>
<trkpt lat="46.518144023916896" lon="6.339165934025685"><ele></ele><time>2013-10-4T23:4:40Z</time></trkpt>
<trkpt lat="46.518193407228765" lon="6.339621063831197"><ele></ele><time>2013-10-4T23:4:43Z</time></trkpt>
<trkpt lat="46.518126891521185" lon="6.339720155969627"><ele></ele><time>2013-10-4T23:4:46Z</time></trkpt>
<trkpt lat="46.51822093146252" lon="6.340141799553806"><ele></ele><time>2013-10-4T23:4:49Z</time></trkpt>
<trkpt lat="46.51815819146568" lon="6.3406317846892"><ele></ele><time>2013-10-4T23:4:52Z</time></trkpt>
<trkpt lat="46.51807201905475" lon="6.341024501079493"><ele></ele><time>2013-10-4T23:4:55Z</time></trkpt>
<trkpt lat="46.51803050450147" lon="6.341383730778553"><ele></ele><time>2013-10-4T23:4:58Z</time></trkpt>
<trkpt lat="46.51828351727654" lon="6.341965061706857"><ele></ele><time>2013-10-4T23:5:1Z</time></trkpt>
<trkpt lat="46.51851404026283" lon="6.3425468531271845"><ele></ele><time>2013-10-4T23:5:4Z</time></trkpt>
<trkpt lat="46.518498460849486" lon="6.343263951231292"><ele></ele><time>2013-10-4T23:5:7Z</time></trkpt>
<trkpt lat="46.51837044281473" lon="6.343983321230768"><ele></ele><time>2013-10-4T23:5:10Z</time></trkpt>
<trkpt lat="46.51835171928825" lon="6.344374670940351"><ele></ele><time>2013-10-4T23:5:13Z</time></trkpt>
<trkpt lat="46.51860283628526" lon="6.3447605707337145"><ele></ele><time>2013-10-4T23:5:16Z</time></trkpt>
<trkpt lat="46.51889892561777" lon="6.345145566143252"><ele></ele><time>2013-10-4T23:5:19Z</time></trkpt>
<trkpt lat="46.51919532685928" lon="6.3455631408842"><ele></ele><time>2013-10-4T23:5:22Z</time></trkpt>
<trkpt lat="46.51944894432049" lon="6.346209654409174"><ele></ele><time>2013-10-4T23:5:25Z</time></trkpt>
<trkpt lat="46.51954452459378" lon="6.346794196254899"><ele></ele><time>2013-10-4T23:5:28Z</time></trkpt>
<trkpt lat="46.51948331939639" lon="6.347447062193039"><ele></ele><time>2013-10-4T23:5:31Z</time></trkpt>
<trkpt lat="46.51941898514065" lon="6.34777417395192"><ele></ele><time>2013-10-4T23:5:34Z</time></trkpt>
<trkpt lat="46.51961886571684" lon="6.347509494772433"><ele></ele><time>2013-10-4T23:5:37Z</time></trkpt>
<trkpt lat="46.51979281825894" lon="6.346886936362832"><ele></ele><time>2013-10-4T23:5:40Z</time></trkpt>
<trkpt lat="46.51994615845515" lon="6.346460280941775"><ele></ele><time>2013-10-4T23:5:43Z</time></trkpt>
<trkpt lat="46.520006418518264" lon="6.345709681478491"><ele></ele><time>2013-10-4T23:5:46Z</time></trkpt>
<trkpt lat="46.5199970192423" lon="6.344732413355444"><ele></ele><time>2013-10-4T23:5:49Z</time></trkpt>
<trkpt lat="46.51998980744074" lon="6.34398317469345"><ele></ele><time>2013-10-4T23:5:52Z</time></trkpt>
<trkpt lat="46.52000758824764" lon="6.343494086214913"><ele></ele><time>2013-10-4T23:5:55Z</time></trkpt>
<trkpt lat="46.5200272504477" lon="6.343200451054254"><ele></ele><time>2013-10-4T23:5:58Z</time></trkpt>
<trkpt lat="46.51986701737704" lon="6.342910455041923"><ele></ele><time>2013-10-4T23:6:1Z</time></trkpt>
<trkpt lat="46.51972487269946" lon="6.3421639497986275"><ele></ele><time>2013-10-4T23:6:4Z</time></trkpt>
<trkpt lat="46.51965332707311" lon="6.341741835586318"><ele></ele><time>2013-10-4T23:6:7Z</time></trkpt>
<trkpt lat="46.51978007279146" lon="6.340892141464434"><ele></ele><time>2013-10-4T23:6:10Z</time></trkpt>
<trkpt lat="46.51986246811986" lon="6.340108506565938"><ele></ele><time>2013-10-4T23:6:13Z</time></trkpt>
<trkpt lat="46.51990429351265" lon="6.3397818392489285"><ele></ele><time>2013-10-4T23:6:16Z</time></trkpt>
<trkpt lat="46.5197646486454" lon="6.339295945113535"><ele></ele><time>2013-10-4T23:6:19Z</time></trkpt>
<trkpt lat="46.519919535878735" lon="6.339032146015791"><ele></ele><time>2013-10-4T23:6:22Z</time></trkpt>
<trkpt lat="46.52000633177235" lon="6.338704564191957"><ele></ele><time>2013-10-4T23:6:25Z</time></trkpt>
<trkpt lat="46.519979431588546" lon="6.338248963129903"><ele></ele><time>2013-10-4T23:6:28Z</time></trkpt>
<trkpt lat="46.519999395626" lon="6.337987901783409"><ele></ele><time>2013-10-4T23:6:31Z</time></trkpt>
<trkpt lat="46.520088396612834" lon="6.337888347083647"><ele></ele><time>2013-10-4T23:6:34Z</time></trkpt>
<trkpt lat="46.52024895781694" lon="6.338210905123927"><ele></ele><time>2013-10-4T23:6:37Z</time></trkpt>
<trkpt lat="46.520185595774265" lon="6.338635759494841"><ele></ele><time>2013-10-4T23:6:40Z</time></trkpt>
<trkpt lat="46.520345839748344" lon="6.338925744557406"><ele></ele><time>2013-10-4T23:6:43Z</time></trkpt>
<trkpt lat="46.52059792019306" lon="6.339409361062499"><ele></ele><time>2013-10-4T23:6:46Z</time></trkpt>
<trkpt lat="46.520669474478915" lon="6.339831479552547"><ele></ele><time>2013-10-4T23:6:49Z</time></trkpt>
<trkpt lat="46.520830974407986" lon="6.340251775037685"><ele></ele><time>2013-10-4T23:6:52Z</time></trkpt>
<trkpt lat="46.520815094943224" lon="6.340936328414235"><ele></ele><time>2013-10-4T23:6:55Z</time></trkpt>
<trkpt lat="46.52082138381841" lon="6.341587849852659"><ele></ele><time>2013-10-4T23:6:58Z</time></trkpt>
<trkpt lat="46.52094355825548" lon="6.3425954330957905"><ele></ele><time>2013-10-4T23:7:1Z</time></trkpt>
<trkpt lat="46.52102106389696" lon="6.343636506379355"><ele></ele><time>2013-10-4T23:7:4Z</time></trkpt>
<trkpt lat="46.52116570699426" lon="6.344643643758782"><ele></ele><time>2013-10-4T23:7:7Z</time></trkpt>
<trkpt lat="46.521288480696924" lon="6.345716393077261"><ele></ele><time>2013-10-4T23:7:10Z</time></trkpt>
<trkpt lat="46.52140435910013" lon="6.346072465205841"><ele></ele><time>2013-10-4T23:7:13Z</time></trkpt>
<trkpt lat="46.52115950822878" lon="6.346338065432772"><ele></ele><time>2013-10-4T23:7:16Z</time></trkpt>
<trkpt lat="46.52109329962824" lon="6.346469731019335"><ele></ele><time>2013-10-4T23:7:19Z</time></trkpt>
<trkpt lat="46.52125696459805" lon="6.347118084188427"><ele></ele><time>2013-10-4T23:7:22Z</time></trkpt>
<trkpt lat="46.52160739504554" lon="6.348479502820504"><ele></ele><time>2013-10-4T23:7:25Z</time></trkpt>
<trkpt lat="46.52174731287957" lon="6.348998013868059"><ele></ele><time>2013-10-4T23:7:28Z</time></trkpt>
<trkpt lat="46.521548989489936" lon="6.34942558075606"><ele></ele><time>2013-10-4T23:7:31Z</time></trkpt>
<trkpt lat="46.52130912204066" lon="6.350212389205787"><ele></ele><time>2013-10-4T23:7:34Z</time></trkpt>
<trkpt lat="46.52133909128832" lon="6.350993771824636"><ele></ele><time>2013-10-4T23:7:37Z</time></trkpt>
<trkpt lat="46.5215042876819" lon="6.351805024352029"><ele></ele><time>2013-10-4T23:7:40Z</time></trkpt>
<trkpt lat="46.52153082223405" lon="6.352228068431326"><ele></ele><time>2013-10-4T23:7:43Z</time></trkpt>
<trkpt lat="46.521375904386225" lon="6.35249183764102"><ele></ele><time>2013-10-4T23:7:46Z</time></trkpt>
<trkpt lat="46.52153953500646" lon="6.353140212410457"><ele></ele><time>2013-10-4T23:7:49Z</time></trkpt>
<trkpt lat="46.521971138899154" lon="6.353587725039976"><ele></ele><time>2013-10-4T23:7:52Z</time></trkpt>
<trkpt lat="46.522202534559675" lon="6.35426733652861"><ele></ele><time>2013-10-4T23:7:55Z</time></trkpt>
<trkpt lat="46.522522941986544" lon="6.354847422524028"><ele></ele><time>2013-10-4T23:7:58Z</time></trkpt>
<trkpt lat="46.52270780449322" lon="6.355365059266408"><ele></ele><time>2013-10-4T23:8:1Z</time></trkpt>
<trkpt lat="46.522979509085616" lon="6.355555126730177"><ele></ele><time>2013-10-4T23:8:4Z</time></trkpt>
<trkpt lat="46.52260529825319" lon="6.356409779483661"><ele></ele><time>2013-10-4T23:8:7Z</time></trkpt>
<trkpt lat="46.52310527974349" lon="6.3569537121470026"><ele></ele><time>2013-10-4T23:8:10Z</time></trkpt>
<trkpt lat="46.52383136641017" lon="6.357623477839272"><ele></ele><time>2013-10-4T23:8:13Z</time></trkpt>
<trkpt lat="46.524398183469096" lon="6.358100931514931"><ele></ele><time>2013-10-4T23:8:16Z</time></trkpt>
<trkpt lat="46.52482481475777" lon="6.358027249969658"><ele></ele><time>2013-10-4T23:8:19Z</time></trkpt>
<trkpt lat="46.52527083579046" lon="6.3576273300521535"><ele></ele><time>2013-10-4T23:8:22Z</time></trkpt>
<trkpt lat="46.52553665060308" lon="6.357198416703765"><ele></ele><time>2013-10-4T23:8:25Z</time></trkpt>
<trkpt lat="46.52568661891639" lon="6.356413375185165"><ele></ele><time>2013-10-4T23:8:28Z</time></trkpt>
<trkpt lat="46.52585968930287" lon="6.355693038012289"><ele></ele><time>2013-10-4T23:8:31Z</time></trkpt>
<trkpt lat="46.52618488301268" lon="6.3544156970056775"><ele></ele><time>2013-10-4T23:8:34Z</time></trkpt>
<trkpt lat="46.52654943582304" lon="6.352551006574581"><ele></ele><time>2013-10-4T23:8:37Z</time></trkpt>
<trkpt lat="46.526856779945824" lon="6.351762778408993"><ele></ele><time>2013-10-4T23:8:40Z</time></trkpt>
<trkpt lat="46.52766946598011" lon="6.349726104103862"><ele></ele><time>2013-10-4T23:8:43Z</time></trkpt>
<trkpt lat="46.52844120488041" lon="6.348113823737469"><ele></ele><time>2013-10-4T23:8:46Z</time></trkpt>
<trkpt lat="46.528814727788884" lon="6.347193859684211"><ele></ele><time>2013-10-4T23:8:49Z</time></trkpt>
<trkpt lat="46.529268841805276" lon="6.347640931980918"><ele></ele><time>2013-10-4T23:8:52Z</time></trkpt>
<trkpt lat="46.52988098680365" lon="6.3481500049346895"><ele></ele><time>2013-10-4T23:8:55Z</time></trkpt>
<trkpt lat="46.530154577713255" lon="6.348535551744854"><ele></ele><time>2013-10-4T23:8:58Z</time></trkpt>
<trkpt lat="46.530320415836584" lon="6.349412092538196"><ele></ele><time>2013-10-4T23:9:1Z</time></trkpt>
<trkpt lat="46.530439090304775" lon="6.350061469189701"><ele></ele><time>2013-10-4T23:9:4Z</time></trkpt>
<trkpt lat="46.53073422608538" lon="6.350348831476011"><ele></ele><time>2013-10-4T23:9:7Z</time></trkpt>
<trkpt lat="46.531011237986846" lon="6.351092800356905"><ele></ele><time>2013-10-4T23:9:10Z</time></trkpt>
<trkpt lat="46.53112865701615" lon="6.3516118596299"><ele></ele><time>2013-10-4T23:9:13Z</time></trkpt>
<trkpt lat="46.53113301678997" lon="6.352068012393042"><ele></ele><time>2013-10-4T23:9:16Z</time></trkpt>
<trkpt lat="46.53097903313983" lon="6.352429575612833"><ele></ele><time>2013-10-4T23:9:19Z</time></trkpt>
<trkpt lat="46.53069043840354" lon="6.352826424297554"><ele></ele><time>2013-10-4T23:9:22Z</time></trkpt>
<trkpt lat="46.53069759191712" lon="6.353575812259284"><ele></ele><time>2013-10-4T23:9:25Z</time></trkpt>
<trkpt lat="46.53083779722357" lon="6.354127005725819"><ele></ele><time>2013-10-4T23:9:28Z</time></trkpt>
<trkpt lat="46.53088618868875" lon="6.354484509289197"><ele></ele><time>2013-10-4T23:9:31Z</time></trkpt>
<trkpt lat="46.53075530528885" lon="6.354910778199259"><ele></ele><time>2013-10-4T23:9:34Z</time></trkpt>
<trkpt lat="46.530604106076744" lon="6.355565569203032"><ele></ele><time>2013-10-4T23:9:37Z</time></trkpt>
<trkpt lat="46.53056471705234" lon="6.356152945093872"><ele></ele><time>2013-10-4T23:9:40Z</time></trkpt>
<trkpt lat="46.53052501498054" lon="6.356707738126846"><ele></ele><time>2013-10-4T23:9:43Z</time></trkpt>
<trkpt lat="46.53026013170937" lon="6.357234438957184"><ele></ele><time>2013-10-4T23:9:46Z</time></trkpt>
<trkpt lat="46.529947794243895" lon="6.357501379003181"><ele></ele><time>2013-10-4T23:9:49Z</time></trkpt>
<trkpt lat="46.52956489795338" lon="6.3574438481338715"><ele></ele><time>2013-10-4T23:9:52Z</time></trkpt>
<trkpt lat="46.52970260702629" lon="6.357734387960292"><ele></ele><time>2013-10-4T23:9:55Z</time></trkpt>
<trkpt lat="46.52970273091482" lon="6.357747420566371"><ele></ele><time>2013-10-4T23:9:58Z</time></trkpt>
<trkpt lat="46.52969823191399" lon="6.357590868685067"><ele></ele><time>2013-10-4T23:10:1Z</time></trkpt>
<trkpt lat="46.52996417065602" lon="6.358714891139366"><ele></ele><time>2013-10-4T23:10:4Z</time></trkpt>
<trkpt lat="46.52975813636291" lon="6.3591428651702095"><ele></ele><time>2013-10-4T23:10:7Z</time></trkpt>
<trkpt lat="46.52936418301704" lon="6.35938483880965"><ele></ele><time>2013-10-4T23:10:10Z</time></trkpt>
<trkpt lat="46.52932713035932" lon="6.359661859828717"><ele></ele><time>2013-10-4T23:10:13Z</time></trkpt>
<trkpt lat="46.52899410583538" lon="6.360354865981163"><ele></ele><time>2013-10-4T23:10:16Z</time></trkpt>
<trkpt lat="46.52847911694394" lon="6.36065182123404"><ele></ele><time>2013-10-4T23:10:19Z</time></trkpt>
<trkpt lat="46.528263116239685" lon="6.360601858392324"><ele></ele><time>2013-10-4T23:10:22Z</time></trkpt>
<trkpt lat="46.52770916397257" lon="6.360158857328262"><ele></ele><time>2013-10-4T23:10:25Z</time></trkpt>
<trkpt lat="46.527145148065074" lon="6.3600347876700685"><ele></ele><time>2013-10-4T23:10:28Z</time></trkpt>
<trkpt lat="46.52636211111869" lon="6.360030824049177"><ele></ele><time>2013-10-4T23:10:31Z</time></trkpt>
<trkpt lat="46.52624015273851" lon="6.3601347559909955"><ele></ele><time>2013-10-4T23:10:34Z</time></trkpt>
<trkpt lat="46.52619111344531" lon="6.360442789718139"><ele></ele><time>2013-10-4T23:10:37Z</time></trkpt>
<trkpt lat="46.52570914674833" lon="6.3608887763683635"><ele></ele><time>2013-10-4T23:10:40Z</time></trkpt>
<trkpt lat="46.525224163867875" lon="6.361257733162736"><ele></ele><time>2013-10-4T23:10:43Z</time></trkpt>
<trkpt lat="46.524926102196495" lon="6.361337771233203"><ele></ele><time>2013-10-4T23:10:46Z</time></trkpt>
<trkpt lat="46.5246691138839" lon="6.361295769939701"><ele></ele><time>2013-10-4T23:10:49Z</time></trkpt>
<trkpt lat="46.524444150029" lon="6.360920756294322"><ele></ele><time>2013-10-4T23:10:52Z</time></trkpt>
<trkpt lat="46.52420417890822" lon="6.360763755699865"><ele></ele><time>2013-10-4T23:10:55Z</time></trkpt>
<trkpt lat="46.524141150732234" lon="6.360543728584365"><ele></ele><time>2013-10-4T23:10:58Z</time></trkpt>
<trkpt lat="46.523762127801426" lon="6.360155718225688"><ele></ele><time>2013-10-4T23:11:1Z</time></trkpt>
<trkpt lat="46.523493236321215" lon="6.359911103713388"><ele></ele><time>2013-10-4T23:11:4Z</time></trkpt>
<trkpt lat="46.523108177122296" lon="6.3596255197310665"><ele></ele><time>2013-10-4T23:11:7Z</time></trkpt>
<trkpt lat="46.52274745948929" lon="6.359534955724979"><ele></ele><time>2013-10-4T23:11:10Z</time></trkpt>
<trkpt lat="46.52146920602604" lon="6.358350602900831"><ele></ele><time>2013-10-4T23:11:13Z</time></trkpt>
<trkpt lat="46.520912143963386" lon="6.358415629348482"><ele></ele><time>2013-10-4T23:11:16Z</time></trkpt>
<trkpt lat="46.520471178290734" lon="6.3580596359624195"><ele></ele><time>2013-10-4T23:11:19Z</time></trkpt>
<trkpt lat="46.52003422862042" lon="6.358137574256305"><ele></ele><time>2013-10-4T23:11:22Z</time></trkpt>
<trkpt lat="46.519649427756406" lon="6.357772106806347"><ele></ele><time>2013-10-4T23:11:25Z</time></trkpt>
<trkpt lat="46.519350592416984" lon="6.357093859445972"><ele></ele><time>2013-10-4T23:11:28Z</time></trkpt>
<trkpt lat="46.51935678868395" lon="6.357745365164636"><ele></ele><time>2013-10-4T23:11:31Z</time></trkpt>
<trkpt lat="46.51913873149926" lon="6.358466506167174"><ele></ele><time>2013-10-4T23:11:34Z</time></trkpt>
<trkpt lat="46.519177166909955" lon="6.358886555424594"><ele></ele><time>2013-10-4T23:11:37Z</time></trkpt>
<trkpt lat="46.51872318390365" lon="6.360038551347994"><ele></ele><time>2013-10-4T23:11:40Z</time></trkpt>
<trkpt lat="46.51843517580645" lon="6.360399551396702"><ele></ele><time>2013-10-4T23:11:43Z</time></trkpt>
<trkpt lat="46.518227129806284" lon="6.360832554535094"><ele></ele><time>2013-10-4T23:11:46Z</time></trkpt>
<trkpt lat="46.518239956390715" lon="6.360927989050965"><ele></ele><time>2013-10-4T23:11:49Z</time></trkpt>
<trkpt lat="46.51817373088501" lon="6.361059629701786"><ele></ele><time>2013-10-4T23:11:52Z</time></trkpt>
<trkpt lat="46.51794731804682" lon="6.360901231046234"><ele></ele><time>2013-10-4T23:11:55Z</time></trkpt>
<trkpt lat="46.517766805301314" lon="6.3608396617770575"><ele></ele><time>2013-10-4T23:11:58Z</time></trkpt>
<trkpt lat="46.51740886792546" lon="6.361042265821534"><ele></ele><time>2013-10-4T23:12:1Z</time></trkpt>
<trkpt lat="46.51698316079528" lon="6.3612136351443915"><ele></ele><time>2013-10-4T23:12:4Z</time></trkpt>
<trkpt lat="46.516784482819425" lon="6.36160854591539"><ele></ele><time>2013-10-4T23:12:7Z</time></trkpt>
<trkpt lat="46.516652030072514" lon="6.361871818152921"><ele></ele><time>2013-10-4T23:12:10Z</time></trkpt>
<trkpt lat="46.51656269955984" lon="6.361938753482847"><ele></ele><time>2013-10-4T23:12:13Z</time></trkpt>
<trkpt lat="46.51644841382468" lon="6.361745547032254"><ele></ele><time>2013-10-4T23:12:16Z</time></trkpt>
<trkpt lat="46.516377558279586" lon="6.361388579504827"><ele></ele><time>2013-10-4T23:12:19Z</time></trkpt>
<trkpt lat="46.516220458717974" lon="6.36142428342594"><ele></ele><time>2013-10-4T23:12:22Z</time></trkpt>
<trkpt lat="46.51613452301431" lon="6.361849526064522"><ele></ele><time>2013-10-4T23:12:25Z</time></trkpt>
<trkpt lat="46.51604827729284" lon="6.362242194028234"><ele></ele><time>2013-10-4T23:12:28Z</time></trkpt>
<trkpt lat="46.51573870272998" lon="6.3628021933724295"><ele></ele><time>2013-10-4T23:12:31Z</time></trkpt>
<trkpt lat="46.515449147121274" lon="6.363101156152919"><ele></ele><time>2013-10-4T23:12:34Z</time></trkpt>
<trkpt lat="46.51508966493511" lon="6.363140872797612"><ele></ele><time>2013-10-4T23:12:37Z</time></trkpt>
<trkpt lat="46.51479856787244" lon="6.363276967278897"><ele></ele><time>2013-10-4T23:12:40Z</time></trkpt>
<trkpt lat="46.51464362435238" lon="6.363540672087121"><ele></ele><time>2013-10-4T23:12:43Z</time></trkpt>
<trkpt lat="46.51442152749483" lon="6.363838286329036"><ele></ele><time>2013-10-4T23:12:46Z</time></trkpt>
<trkpt lat="46.51404263729434" lon="6.364204164772717"><ele></ele><time>2013-10-4T23:12:49Z</time></trkpt>
<trkpt lat="46.51397856257548" lon="6.364563795862445"><ele></ele><time>2013-10-4T23:12:52Z</time></trkpt>
<trkpt lat="46.51384641065706" lon="6.364859619246161"><ele></ele><time>2013-10-4T23:12:55Z</time></trkpt>
<trkpt lat="46.513624002739526" lon="6.3651246518131135"><ele></ele><time>2013-10-4T23:12:58Z</time></trkpt>
<trkpt lat="46.51346659439071" lon="6.365127771287916"><ele></ele><time>2013-10-4T23:13:1Z</time></trkpt>
<trkpt lat="46.51328946718553" lon="6.365424481525947"><ele></ele><time>2013-10-4T23:13:4Z</time></trkpt>
<trkpt lat="46.5129305991598" lon="6.365529324096655"><ele></ele><time>2013-10-4T23:13:7Z</time></trkpt>
<trkpt lat="46.512526142277366" lon="6.365569913663108"><ele></ele><time>2013-10-4T23:13:10Z</time></trkpt>
<trkpt lat="46.51207763391069" lon="6.365709106344301"><ele></ele><time>2013-10-4T23:13:13Z</time></trkpt>
<trkpt lat="46.511629125367286" lon="6.365848296718552"><ele></ele><time>2013-10-4T23:13:16Z</time></trkpt>
<trkpt lat="46.51136174130383" lon="6.366114204793266"><ele></ele><time>2013-10-4T23:13:19Z</time></trkpt>
<trkpt lat="46.51118430427028" lon="6.366378329846791"><ele></ele><time>2013-10-4T23:13:22Z</time></trkpt>
<trkpt lat="46.51106818208684" lon="6.365989711090236"><ele></ele><time>2013-10-4T23:13:25Z</time></trkpt>
<trkpt lat="46.51102228614948" lon="6.3658928906365"><ele></ele><time>2013-10-4T23:13:28Z</time></trkpt>
<trkpt lat="46.51122128654171" lon="6.3655306080466545"><ele></ele><time>2013-10-4T23:13:31Z</time></trkpt>
<trkpt lat="46.51139810645708" lon="6.365201338943805"><ele></ele><time>2013-10-4T23:13:34Z</time></trkpt>
<trkpt lat="46.51157307918394" lon="6.364676643796652"><ele></ele><time>2013-10-4T23:13:37Z</time></trkpt>
<trkpt lat="46.51172771754119" lon="6.364380386453631"><ele></ele><time>2013-10-4T23:13:40Z</time></trkpt>
<trkpt lat="46.51190484202944" lon="6.364083681360618"><ele></ele><time>2013-10-4T23:13:43Z</time></trkpt>
<trkpt lat="46.5119695312282" lon="6.3637892052376195"><ele></ele><time>2013-10-4T23:13:46Z</time></trkpt>
<trkpt lat="46.51187896762331" lon="6.363725848306032"><ele></ele><time>2013-10-4T23:13:49Z</time></trkpt>
<trkpt lat="46.51178809595395" lon="6.3636299208149625"><ele></ele><time>2013-10-4T23:13:52Z</time></trkpt>
<trkpt lat="46.511763760683" lon="6.3634349425215175"><ele></ele><time>2013-10-4T23:13:55Z</time></trkpt>
<trkpt lat="46.511496074249585" lon="6.363668292574896"><ele></ele><time>2013-10-4T23:13:58Z</time></trkpt>
<trkpt lat="46.51127459289143" lon="6.364031029919299"><ele></ele><time>2013-10-4T23:14:1Z</time></trkpt>
<trkpt lat="46.51098380260272" lon="6.364199680311432"><ele></ele><time>2013-10-4T23:14:4Z</time></trkpt>
<trkpt lat="46.51080390736124" lon="6.3642032483195194"><ele></ele><time>2013-10-4T23:14:7Z</time></trkpt>
<trkpt lat="46.510470297516434" lon="6.364600778054076"><ele></ele><time>2013-10-4T23:14:10Z</time></trkpt>
<trkpt lat="46.50993953263296" lon="6.365555998195406"><ele></ele><time>2013-10-4T23:14:13Z</time></trkpt>
<trkpt lat="46.50973960997652" lon="6.3658205634584055"><ele></ele><time>2013-10-4T23:14:16Z</time></trkpt>
<trkpt lat="46.509608069392385" lon="6.366181499566778"><ele></ele><time>2013-10-4T23:14:19Z</time></trkpt>
<trkpt lat="46.5095199653797" lon="6.366378696767451"><ele></ele><time>2013-10-4T23:14:22Z</time></trkpt>
<trkpt lat="46.50902924662278" lon="6.366811887220775"><ele></ele><time>2013-10-4T23:14:25Z</time></trkpt>
<trkpt lat="46.50884996551109" lon="6.366880584465795"><ele></ele><time>2013-10-4T23:14:28Z</time></trkpt>
<trkpt lat="46.508692249985145" lon="6.366851129628534"><ele></ele><time>2013-10-4T23:14:31Z</time></trkpt>
<trkpt lat="46.508446736382076" lon="6.367051435994056"><ele></ele><time>2013-10-4T23:14:34Z</time></trkpt>
<trkpt lat="46.507976660222894" lon="6.36728875614351"><ele></ele><time>2013-10-4T23:14:37Z</time></trkpt>
<trkpt lat="46.50761840431007" lon="6.3674587126341216"><ele></ele><time>2013-10-4T23:14:40Z</time></trkpt>
<trkpt lat="46.50728355568141" lon="6.367725926583811"><ele></ele><time>2013-10-4T23:14:43Z</time></trkpt>
<trkpt lat="46.50712860180252" lon="6.367989582068192"><ele></ele><time>2013-10-4T23:14:46Z</time></trkpt>
<trkpt lat="46.507086388634306" lon="6.368283582580757"><ele></ele><time>2013-10-4T23:14:49Z</time></trkpt>
<trkpt lat="46.50697763373421" lon="6.368676618809532"><ele></ele><time>2013-10-4T23:14:52Z</time></trkpt>
<trkpt lat="46.50695851870259" lon="6.369035309775364"><ele></ele><time>2013-10-4T23:14:55Z</time></trkpt>
<trkpt lat="46.507050305151594" lon="6.369228941648064"><ele></ele><time>2013-10-4T23:14:58Z</time></trkpt>
<trkpt lat="46.50709834283224" lon="6.369553733717358"><ele></ele><time>2013-10-4T23:15:1Z</time></trkpt>
<trkpt lat="46.507102018191034" lon="6.369944549565763"><ele></ele><time>2013-10-4T23:15:4Z</time></trkpt>
<trkpt lat="46.5070363945732" lon="6.370141288018946"><ele></ele><time>2013-10-4T23:15:7Z</time></trkpt>
<trkpt lat="46.507105386089265" lon="6.370302797473929"><ele></ele><time>2013-10-4T23:15:10Z</time></trkpt>
<trkpt lat="46.50719655822821" lon="6.370431295921397"><ele></ele><time>2013-10-4T23:15:13Z</time></trkpt>
<trkpt lat="46.506816728738826" lon="6.370699375951514"><ele></ele><time>2013-10-4T23:15:16Z</time></trkpt>
<trkpt lat="46.50643598077849" lon="6.370869749435702"><ele></ele><time>2013-10-4T23:15:19Z</time></trkpt>
<trkpt lat="46.50612208152487" lon="6.3709736563454555"><ele></ele><time>2013-10-4T23:15:22Z</time></trkpt>
<trkpt lat="46.505785695237776" lon="6.371078005153326"><ele></ele><time>2013-10-4T23:15:25Z</time></trkpt>
<trkpt lat="46.505516463785895" lon="6.37114845644852"><ele></ele><time>2013-10-4T23:15:28Z</time></trkpt>
<trkpt lat="46.505269719224714" lon="6.371218464002559"><ele></ele><time>2013-10-4T23:15:31Z</time></trkpt>
<trkpt lat="46.50524509104879" lon="6.370990938880355"><ele></ele><time>2013-10-4T23:15:34Z</time></trkpt>
<trkpt lat="46.505421314760774" lon="6.370596589971522"><ele></ele><time>2013-10-4T23:15:37Z</time></trkpt>
<trkpt lat="46.5056428171135" lon="6.370233918679623"><ele></ele><time>2013-10-4T23:15:40Z</time></trkpt>
<trkpt lat="46.5058864989884" lon="6.3698382335582515"><ele></ele><time>2013-10-4T23:15:43Z</time></trkpt>
<trkpt lat="46.50595181576851" lon="6.369608931619506"><ele></ele><time>2013-10-4T23:15:46Z</time></trkpt>
<trkpt lat="46.506060880324554" lon="6.369248472065868"><ele></ele><time>2013-10-4T23:15:49Z</time></trkpt>
<trkpt lat="46.50623863055065" lon="6.3690169488699135"><ele></ele><time>2013-10-4T23:15:52Z</time></trkpt>
<trkpt lat="46.50632551289047" lon="6.368689497844063"><ele></ele><time>2013-10-4T23:15:55Z</time></trkpt>
<trkpt lat="46.50612282396975" lon="6.368660927328593"><ele></ele><time>2013-10-4T23:15:58Z</time></trkpt>
<trkpt lat="46.50578858551099" lon="6.368993260852098"><ele></ele><time>2013-10-4T23:16:1Z</time></trkpt>
<trkpt lat="46.50543247193166" lon="6.369391168065246"><ele></ele><time>2013-10-4T23:16:4Z</time></trkpt>
<trkpt lat="46.50512041196921" lon="6.369690482388912"><ele></ele><time>2013-10-4T23:16:7Z</time></trkpt>
<trkpt lat="46.50491925470074" lon="6.369824742138468"><ele></ele><time>2013-10-4T23:16:10Z</time></trkpt>
<trkpt lat="46.5048293069756" lon="6.369826516600065"><ele></ele><time>2013-10-4T23:16:13Z</time></trkpt>
<trkpt lat="46.50487091143599" lon="6.369467396249822"><ele></ele><time>2013-10-4T23:16:16Z</time></trkpt>
<trkpt lat="46.504867234436574" lon="6.3690765965337786"><ele></ele><time>2013-10-4T23:16:19Z</time></trkpt>
<trkpt lat="46.504753267318065" lon="6.368915983299556"><ele></ele><time>2013-10-4T23:16:22Z</time></trkpt>
<trkpt lat="46.50352904539771" lon="6.370275601552954"><ele></ele><time>2013-10-4T23:16:25Z</time></trkpt>
<trkpt lat="46.502859946114675" lon="6.37087508184219"><ele></ele><time>2013-10-4T23:16:28Z</time></trkpt>
<trkpt lat="46.50207871473889" lon="6.371509326833943"><ele></ele><time>2013-10-4T23:16:31Z</time></trkpt>
<trkpt lat="46.50134092560464" lon="6.3719798455884495"><ele></ele><time>2013-10-4T23:16:34Z</time></trkpt>
<trkpt lat="46.5011844338877" lon="6.372080637750045"><ele></ele><time>2013-10-4T23:16:37Z</time></trkpt>
<trkpt lat="46.50091275674834" lon="6.371890563820785"><ele></ele><time>2013-10-4T23:16:40Z</time></trkpt>
<trkpt lat="46.50075229103562" lon="6.371568021057459"><ele></ele><time>2013-10-4T23:16:43Z</time></trkpt>
<trkpt lat="46.500053666976534" lon="6.371418930658941"><ele></ele><time>2013-10-4T23:16:46Z</time></trkpt>
<trkpt lat="46.498884957618095" lon="6.371507087783058"><ele></ele><time>2013-10-4T23:16:49Z</time></trkpt>
<trkpt lat="46.498925343807066" lon="6.371017755811987"><ele></ele><time>2013-10-4T23:16:52Z</time></trkpt>
<trkpt lat="46.49896756405971" lon="6.370723801725148"><ele></ele><time>2013-10-4T23:16:55Z</time></trkpt>
<trkpt lat="46.499097588475514" lon="6.370200131657217"><ele></ele><time>2013-10-4T23:16:58Z</time></trkpt>
<trkpt lat="46.499223934197616" lon="6.369285700060619"><ele></ele><time>2013-10-4T23:17:1Z</time></trkpt>
<trkpt lat="46.499353645417244" lon="6.368729460741054"><ele></ele><time>2013-10-4T23:17:4Z</time></trkpt>
<trkpt lat="46.49932625214167" lon="6.368208891848095"><ele></ele><time>2013-10-4T23:17:7Z</time></trkpt>
<trkpt lat="46.49920491867826" lon="6.367266779335609"><ele></ele><time>2013-10-4T23:17:10Z</time></trkpt>
<trkpt lat="46.499132851991526" lon="6.366779665486195"><ele></ele><time>2013-10-4T23:17:13Z</time></trkpt>
<trkpt lat="46.49908388465994" lon="6.366357234195208"><ele></ele><time>2013-10-4T23:17:16Z</time></trkpt>
<trkpt lat="46.49885655714291" lon="6.366101180155604"><ele></ele><time>2013-10-4T23:17:19Z</time></trkpt>
<trkpt lat="46.49878786700746" lon="6.365972263614005"><ele></ele><time>2013-10-4T23:17:22Z</time></trkpt>
<trkpt lat="46.49878798995158" lon="6.365985288801112"><ele></ele><time>2013-10-4T23:17:25Z</time></trkpt>
</trkseg></trk></gpx>